<?xml version="1.0" encoding="UTF-8" standalone="no" ?>
<gpx xmlns="http://www.topografix.com/GPX/1/1" xmlns:xsi="http://www.w3.org/2001/XMLSchema-instance" xsi:schemaLocation="http://www.topografix.com/GPX/1/1 http://www.topografix.com/GPX/1/1/gpx.xsd" version="1.1" creator="VisuGPX - https://www.visugpx.com">
  <metadata>
    <name>Course à pied en soirée</name>
  </metadata>
  <trk>
    <name><![CDATA[Course à pied en soirée_1]]></name>
    <trkseg>
      <trkpt lat="48.71144" lon="7.16276">
        <ele>316.5</ele>
        <time>2023-09-27T16:48:02Z</time>
      </trkpt>
      <trkpt lat="48.71143" lon="7.16269">
        <ele>316.7</ele>
        <time>2023-09-27T16:48:04Z</time>
      </trkpt>
      <trkpt lat="48.71126" lon="7.16255">
        <ele>317.1</ele>
        <time>2023-09-27T16:48:12Z</time>
      </trkpt>
      <trkpt lat="48.71114" lon="7.16234">
        <ele>317.3</ele>
        <time>2023-09-27T16:48:17Z</time>
      </trkpt>
      <trkpt lat="48.71098" lon="7.16212">
        <ele>317.6</ele>
        <time>2023-09-27T16:48:23Z</time>
      </trkpt>
      <trkpt lat="48.71081" lon="7.16193">
        <ele>317.8</ele>
        <time>2023-09-27T16:48:29Z</time>
      </trkpt>
      <trkpt lat="48.71063" lon="7.16181">
        <ele>318</ele>
        <time>2023-09-27T16:48:35Z</time>
      </trkpt>
      <trkpt lat="48.71045" lon="7.16172">
        <ele>318.1</ele>
        <time>2023-09-27T16:48:41Z</time>
      </trkpt>
      <trkpt lat="48.71028" lon="7.16163">
        <ele>318.2</ele>
        <time>2023-09-27T16:48:49Z</time>
      </trkpt>
      <trkpt lat="48.71009" lon="7.16157">
        <ele>318.4</ele>
        <time>2023-09-27T16:48:56Z</time>
      </trkpt>
      <trkpt lat="48.7099" lon="7.16156">
        <ele>318.7</ele>
        <time>2023-09-27T16:49:03Z</time>
      </trkpt>
      <trkpt lat="48.70969" lon="7.16158">
        <ele>319.3</ele>
        <time>2023-09-27T16:49:11Z</time>
      </trkpt>
      <trkpt lat="48.70951" lon="7.16153">
        <ele>319.9</ele>
        <time>2023-09-27T16:49:18Z</time>
      </trkpt>
      <trkpt lat="48.70932" lon="7.16147">
        <ele>320.6</ele>
        <time>2023-09-27T16:49:25Z</time>
      </trkpt>
      <trkpt lat="48.70913" lon="7.16142">
        <ele>321.3</ele>
        <time>2023-09-27T16:49:34Z</time>
      </trkpt>
      <trkpt lat="48.70895" lon="7.1614">
        <ele>322</ele>
        <time>2023-09-27T16:49:43Z</time>
      </trkpt>
      <trkpt lat="48.70875" lon="7.16136">
        <ele>322.9</ele>
        <time>2023-09-27T16:49:50Z</time>
      </trkpt>
      <trkpt lat="48.70857" lon="7.16129">
        <ele>323.6</ele>
        <time>2023-09-27T16:49:56Z</time>
      </trkpt>
      <trkpt lat="48.70837" lon="7.16131">
        <ele>324.3</ele>
        <time>2023-09-27T16:50:03Z</time>
      </trkpt>
      <trkpt lat="48.70822" lon="7.16149">
        <ele>326.1</ele>
        <time>2023-09-27T16:50:10Z</time>
      </trkpt>
      <trkpt lat="48.70808" lon="7.16168">
        <ele>327.7</ele>
        <time>2023-09-27T16:50:17Z</time>
      </trkpt>
      <trkpt lat="48.70793" lon="7.16187">
        <ele>329.4</ele>
        <time>2023-09-27T16:50:24Z</time>
      </trkpt>
      <trkpt lat="48.7078" lon="7.16206">
        <ele>330.9</ele>
        <time>2023-09-27T16:50:31Z</time>
      </trkpt>
      <trkpt lat="48.70765" lon="7.16228">
        <ele>332.8</ele>
        <time>2023-09-27T16:50:39Z</time>
      </trkpt>
      <trkpt lat="48.70752" lon="7.1625">
        <ele>334.7</ele>
        <time>2023-09-27T16:50:47Z</time>
      </trkpt>
      <trkpt lat="48.7074" lon="7.16271">
        <ele>336.5</ele>
        <time>2023-09-27T16:50:54Z</time>
      </trkpt>
      <trkpt lat="48.70728" lon="7.16294">
        <ele>338.3</ele>
        <time>2023-09-27T16:51:01Z</time>
      </trkpt>
      <trkpt lat="48.70716" lon="7.16316">
        <ele>340</ele>
        <time>2023-09-27T16:51:08Z</time>
      </trkpt>
      <trkpt lat="48.70704" lon="7.16337">
        <ele>341.7</ele>
        <time>2023-09-27T16:51:15Z</time>
      </trkpt>
      <trkpt lat="48.70694" lon="7.16363">
        <ele>343.5</ele>
        <time>2023-09-27T16:51:22Z</time>
      </trkpt>
      <trkpt lat="48.70683" lon="7.16389">
        <ele>345.2</ele>
        <time>2023-09-27T16:51:29Z</time>
      </trkpt>
      <trkpt lat="48.70672" lon="7.16411">
        <ele>346.8</ele>
        <time>2023-09-27T16:51:35Z</time>
      </trkpt>
      <trkpt lat="48.7066" lon="7.16432">
        <ele>348</ele>
        <time>2023-09-27T16:51:41Z</time>
      </trkpt>
      <trkpt lat="48.70647" lon="7.16457">
        <ele>348.9</ele>
        <time>2023-09-27T16:51:48Z</time>
      </trkpt>
      <trkpt lat="48.70635" lon="7.16478">
        <ele>349.7</ele>
        <time>2023-09-27T16:51:54Z</time>
      </trkpt>
      <trkpt lat="48.70622" lon="7.16498">
        <ele>350.6</ele>
        <time>2023-09-27T16:52:00Z</time>
      </trkpt>
      <trkpt lat="48.70608" lon="7.16521">
        <ele>351.7</ele>
        <time>2023-09-27T16:52:07Z</time>
      </trkpt>
      <trkpt lat="48.70596" lon="7.16541">
        <ele>352.6</ele>
        <time>2023-09-27T16:52:13Z</time>
      </trkpt>
      <trkpt lat="48.70582" lon="7.16565">
        <ele>353.4</ele>
        <time>2023-09-27T16:52:20Z</time>
      </trkpt>
      <trkpt lat="48.70569" lon="7.16585">
        <ele>354.3</ele>
        <time>2023-09-27T16:52:27Z</time>
      </trkpt>
      <trkpt lat="48.70555" lon="7.16607">
        <ele>355.1</ele>
        <time>2023-09-27T16:52:34Z</time>
      </trkpt>
      <trkpt lat="48.70542" lon="7.16626">
        <ele>355.7</ele>
        <time>2023-09-27T16:52:40Z</time>
      </trkpt>
      <trkpt lat="48.70529" lon="7.1665">
        <ele>356.3</ele>
        <time>2023-09-27T16:52:47Z</time>
      </trkpt>
      <trkpt lat="48.70516" lon="7.16675">
        <ele>356.6</ele>
        <time>2023-09-27T16:52:54Z</time>
      </trkpt>
      <trkpt lat="48.70504" lon="7.16696">
        <ele>356.4</ele>
        <time>2023-09-27T16:53:00Z</time>
      </trkpt>
      <trkpt lat="48.70494" lon="7.16719">
        <ele>356.1</ele>
        <time>2023-09-27T16:53:06Z</time>
      </trkpt>
      <trkpt lat="48.70481" lon="7.16743">
        <ele>355.4</ele>
        <time>2023-09-27T16:53:12Z</time>
      </trkpt>
      <trkpt lat="48.70467" lon="7.16766">
        <ele>354.7</ele>
        <time>2023-09-27T16:53:18Z</time>
      </trkpt>
      <trkpt lat="48.70453" lon="7.16788">
        <ele>354.1</ele>
        <time>2023-09-27T16:53:24Z</time>
      </trkpt>
      <trkpt lat="48.70438" lon="7.16807">
        <ele>353.8</ele>
        <time>2023-09-27T16:53:30Z</time>
      </trkpt>
      <trkpt lat="48.70423" lon="7.16826">
        <ele>353.7</ele>
        <time>2023-09-27T16:53:36Z</time>
      </trkpt>
      <trkpt lat="48.70408" lon="7.16846">
        <ele>353.6</ele>
        <time>2023-09-27T16:53:42Z</time>
      </trkpt>
      <trkpt lat="48.70392" lon="7.16861">
        <ele>353.8</ele>
        <time>2023-09-27T16:53:48Z</time>
      </trkpt>
      <trkpt lat="48.70375" lon="7.16874">
        <ele>354.3</ele>
        <time>2023-09-27T16:53:54Z</time>
      </trkpt>
      <trkpt lat="48.70357" lon="7.16887">
        <ele>355.1</ele>
        <time>2023-09-27T16:54:01Z</time>
      </trkpt>
      <trkpt lat="48.70339" lon="7.16897">
        <ele>356.4</ele>
        <time>2023-09-27T16:54:08Z</time>
      </trkpt>
      <trkpt lat="48.70322" lon="7.16907">
        <ele>357.8</ele>
        <time>2023-09-27T16:54:15Z</time>
      </trkpt>
      <trkpt lat="48.70306" lon="7.1692">
        <ele>359.4</ele>
        <time>2023-09-27T16:54:22Z</time>
      </trkpt>
      <trkpt lat="48.70289" lon="7.16933">
        <ele>360.9</ele>
        <time>2023-09-27T16:54:29Z</time>
      </trkpt>
      <trkpt lat="48.7027" lon="7.16943">
        <ele>362.4</ele>
        <time>2023-09-27T16:54:36Z</time>
      </trkpt>
      <trkpt lat="48.70251" lon="7.16956">
        <ele>363.7</ele>
        <time>2023-09-27T16:54:43Z</time>
      </trkpt>
      <trkpt lat="48.70233" lon="7.16969">
        <ele>364.8</ele>
        <time>2023-09-27T16:54:50Z</time>
      </trkpt>
      <trkpt lat="48.70214" lon="7.16982">
        <ele>365.8</ele>
        <time>2023-09-27T16:54:57Z</time>
      </trkpt>
      <trkpt lat="48.70195" lon="7.16996">
        <ele>366.9</ele>
        <time>2023-09-27T16:55:04Z</time>
      </trkpt>
      <trkpt lat="48.70177" lon="7.1701">
        <ele>368.3</ele>
        <time>2023-09-27T16:55:11Z</time>
      </trkpt>
      <trkpt lat="48.70161" lon="7.17023">
        <ele>369.7</ele>
        <time>2023-09-27T16:55:18Z</time>
      </trkpt>
      <trkpt lat="48.70144" lon="7.17035">
        <ele>371.2</ele>
        <time>2023-09-27T16:55:25Z</time>
      </trkpt>
      <trkpt lat="48.70132" lon="7.17058">
        <ele>372.9</ele>
        <time>2023-09-27T16:55:32Z</time>
      </trkpt>
      <trkpt lat="48.7012" lon="7.1708">
        <ele>374.1</ele>
        <time>2023-09-27T16:55:38Z</time>
      </trkpt>
      <trkpt lat="48.70102" lon="7.17097">
        <ele>375.7</ele>
        <time>2023-09-27T16:55:45Z</time>
      </trkpt>
      <trkpt lat="48.70087" lon="7.17113">
        <ele>377</ele>
        <time>2023-09-27T16:55:51Z</time>
      </trkpt>
      <trkpt lat="48.7007" lon="7.1713">
        <ele>378.7</ele>
        <time>2023-09-27T16:55:58Z</time>
      </trkpt>
      <trkpt lat="48.70052" lon="7.17146">
        <ele>380.4</ele>
        <time>2023-09-27T16:56:05Z</time>
      </trkpt>
      <trkpt lat="48.70034" lon="7.17161">
        <ele>382.2</ele>
        <time>2023-09-27T16:56:12Z</time>
      </trkpt>
      <trkpt lat="48.70017" lon="7.17178">
        <ele>383.9</ele>
        <time>2023-09-27T16:56:19Z</time>
      </trkpt>
      <trkpt lat="48.70001" lon="7.17194">
        <ele>385.5</ele>
        <time>2023-09-27T16:56:25Z</time>
      </trkpt>
      <trkpt lat="48.69987" lon="7.17213">
        <ele>387.2</ele>
        <time>2023-09-27T16:56:31Z</time>
      </trkpt>
      <trkpt lat="48.6997" lon="7.17232">
        <ele>388.8</ele>
        <time>2023-09-27T16:56:38Z</time>
      </trkpt>
      <trkpt lat="48.69957" lon="7.17252">
        <ele>390.1</ele>
        <time>2023-09-27T16:56:44Z</time>
      </trkpt>
      <trkpt lat="48.69944" lon="7.17274">
        <ele>391.2</ele>
        <time>2023-09-27T16:56:50Z</time>
      </trkpt>
      <trkpt lat="48.6993" lon="7.17291">
        <ele>392.2</ele>
        <time>2023-09-27T16:56:56Z</time>
      </trkpt>
      <trkpt lat="48.69915" lon="7.17308">
        <ele>393.2</ele>
        <time>2023-09-27T16:57:02Z</time>
      </trkpt>
      <trkpt lat="48.69908" lon="7.17315">
        <ele>393.6</ele>
        <time>2023-09-27T16:57:05Z</time>
      </trkpt>
      <trkpt lat="48.6989" lon="7.1732">
        <ele>394.5</ele>
        <time>2023-09-27T16:57:12Z</time>
      </trkpt>
      <trkpt lat="48.69872" lon="7.17329">
        <ele>395.5</ele>
        <time>2023-09-27T16:57:19Z</time>
      </trkpt>
      <trkpt lat="48.69855" lon="7.17335">
        <ele>396.7</ele>
        <time>2023-09-27T16:57:25Z</time>
      </trkpt>
      <trkpt lat="48.69835" lon="7.17337">
        <ele>398</ele>
        <time>2023-09-27T16:57:32Z</time>
      </trkpt>
      <trkpt lat="48.6982" lon="7.1732">
        <ele>397.7</ele>
        <time>2023-09-27T16:57:38Z</time>
      </trkpt>
      <trkpt lat="48.69811" lon="7.17295">
        <ele>397.5</ele>
        <time>2023-09-27T16:57:46Z</time>
      </trkpt>
      <trkpt lat="48.698" lon="7.1727">
        <ele>397</ele>
        <time>2023-09-27T16:57:53Z</time>
      </trkpt>
      <trkpt lat="48.6979" lon="7.17244">
        <ele>396.2</ele>
        <time>2023-09-27T16:57:59Z</time>
      </trkpt>
      <trkpt lat="48.69781" lon="7.1722">
        <ele>395.6</ele>
        <time>2023-09-27T16:58:05Z</time>
      </trkpt>
      <trkpt lat="48.6978" lon="7.1719">
        <ele>394.8</ele>
        <time>2023-09-27T16:58:12Z</time>
      </trkpt>
      <trkpt lat="48.69778" lon="7.17161">
        <ele>394.1</ele>
        <time>2023-09-27T16:58:19Z</time>
      </trkpt>
      <trkpt lat="48.69771" lon="7.17133">
        <ele>393.4</ele>
        <time>2023-09-27T16:58:25Z</time>
      </trkpt>
      <trkpt lat="48.69764" lon="7.17105">
        <ele>392.7</ele>
        <time>2023-09-27T16:58:31Z</time>
      </trkpt>
      <trkpt lat="48.69757" lon="7.17079">
        <ele>392.1</ele>
        <time>2023-09-27T16:58:36Z</time>
      </trkpt>
      <trkpt lat="48.69749" lon="7.17053">
        <ele>391.4</ele>
        <time>2023-09-27T16:58:41Z</time>
      </trkpt>
      <trkpt lat="48.6974" lon="7.17026">
        <ele>390.7</ele>
        <time>2023-09-27T16:58:47Z</time>
      </trkpt>
      <trkpt lat="48.69731" lon="7.16997">
        <ele>390.1</ele>
        <time>2023-09-27T16:58:53Z</time>
      </trkpt>
      <trkpt lat="48.69722" lon="7.16971">
        <ele>388.8</ele>
        <time>2023-09-27T16:58:59Z</time>
      </trkpt>
      <trkpt lat="48.69712" lon="7.16947">
        <ele>387.6</ele>
        <time>2023-09-27T16:59:04Z</time>
      </trkpt>
      <trkpt lat="48.69696" lon="7.16927">
        <ele>386.7</ele>
        <time>2023-09-27T16:59:11Z</time>
      </trkpt>
      <trkpt lat="48.69678" lon="7.16918">
        <ele>385.9</ele>
        <time>2023-09-27T16:59:18Z</time>
      </trkpt>
      <trkpt lat="48.69658" lon="7.16907">
        <ele>385.1</ele>
        <time>2023-09-27T16:59:24Z</time>
      </trkpt>
      <trkpt lat="48.69642" lon="7.16893">
        <ele>384.1</ele>
        <time>2023-09-27T16:59:29Z</time>
      </trkpt>
      <trkpt lat="48.69626" lon="7.1688">
        <ele>383.4</ele>
        <time>2023-09-27T16:59:34Z</time>
      </trkpt>
      <trkpt lat="48.6961" lon="7.16864">
        <ele>382.9</ele>
        <time>2023-09-27T16:59:39Z</time>
      </trkpt>
      <trkpt lat="48.69593" lon="7.16846">
        <ele>382.9</ele>
        <time>2023-09-27T16:59:45Z</time>
      </trkpt>
      <trkpt lat="48.69578" lon="7.16829">
        <ele>383.1</ele>
        <time>2023-09-27T16:59:50Z</time>
      </trkpt>
      <trkpt lat="48.69562" lon="7.1681">
        <ele>383.6</ele>
        <time>2023-09-27T16:59:56Z</time>
      </trkpt>
      <trkpt lat="48.69545" lon="7.16793">
        <ele>382.7</ele>
        <time>2023-09-27T17:00:01Z</time>
      </trkpt>
      <trkpt lat="48.69527" lon="7.16775">
        <ele>380.6</ele>
        <time>2023-09-27T17:00:06Z</time>
      </trkpt>
      <trkpt lat="48.69513" lon="7.16753">
        <ele>378.6</ele>
        <time>2023-09-27T17:00:11Z</time>
      </trkpt>
      <trkpt lat="48.695" lon="7.16732">
        <ele>376.5</ele>
        <time>2023-09-27T17:00:16Z</time>
      </trkpt>
      <trkpt lat="48.69488" lon="7.16708">
        <ele>375.8</ele>
        <time>2023-09-27T17:00:21Z</time>
      </trkpt>
      <trkpt lat="48.69477" lon="7.1668">
        <ele>375.1</ele>
        <time>2023-09-27T17:00:26Z</time>
      </trkpt>
      <trkpt lat="48.69474" lon="7.16648">
        <ele>374.2</ele>
        <time>2023-09-27T17:00:31Z</time>
      </trkpt>
      <trkpt lat="48.69475" lon="7.16616">
        <ele>373.2</ele>
        <time>2023-09-27T17:00:36Z</time>
      </trkpt>
      <trkpt lat="48.69476" lon="7.16585">
        <ele>372.3</ele>
        <time>2023-09-27T17:00:41Z</time>
      </trkpt>
      <trkpt lat="48.69479" lon="7.16556">
        <ele>371.5</ele>
        <time>2023-09-27T17:00:46Z</time>
      </trkpt>
      <trkpt lat="48.69483" lon="7.16525">
        <ele>370.8</ele>
        <time>2023-09-27T17:00:51Z</time>
      </trkpt>
      <trkpt lat="48.69485" lon="7.16491">
        <ele>370.1</ele>
        <time>2023-09-27T17:00:56Z</time>
      </trkpt>
      <trkpt lat="48.69487" lon="7.16462">
        <ele>369.5</ele>
        <time>2023-09-27T17:01:01Z</time>
      </trkpt>
      <trkpt lat="48.69489" lon="7.16434">
        <ele>369.2</ele>
        <time>2023-09-27T17:01:06Z</time>
      </trkpt>
      <trkpt lat="48.6949" lon="7.16406">
        <ele>369</ele>
        <time>2023-09-27T17:01:11Z</time>
      </trkpt>
      <trkpt lat="48.69491" lon="7.16375">
        <ele>368.9</ele>
        <time>2023-09-27T17:01:17Z</time>
      </trkpt>
      <trkpt lat="48.69492" lon="7.16346">
        <ele>368.8</ele>
        <time>2023-09-27T17:01:23Z</time>
      </trkpt>
      <trkpt lat="48.69493" lon="7.16317">
        <ele>368.7</ele>
        <time>2023-09-27T17:01:29Z</time>
      </trkpt>
      <trkpt lat="48.69487" lon="7.16291">
        <ele>368.6</ele>
        <time>2023-09-27T17:01:34Z</time>
      </trkpt>
      <trkpt lat="48.69478" lon="7.16262">
        <ele>368.4</ele>
        <time>2023-09-27T17:01:39Z</time>
      </trkpt>
      <trkpt lat="48.69465" lon="7.16235">
        <ele>368.2</ele>
        <time>2023-09-27T17:01:44Z</time>
      </trkpt>
      <trkpt lat="48.69452" lon="7.16211">
        <ele>367.8</ele>
        <time>2023-09-27T17:01:49Z</time>
      </trkpt>
      <trkpt lat="48.69439" lon="7.16188">
        <ele>367.4</ele>
        <time>2023-09-27T17:01:54Z</time>
      </trkpt>
      <trkpt lat="48.69429" lon="7.16162">
        <ele>367</ele>
        <time>2023-09-27T17:01:59Z</time>
      </trkpt>
      <trkpt lat="48.69421" lon="7.16135">
        <ele>366.5</ele>
        <time>2023-09-27T17:02:04Z</time>
      </trkpt>
      <trkpt lat="48.6941" lon="7.16108">
        <ele>366</ele>
        <time>2023-09-27T17:02:09Z</time>
      </trkpt>
      <trkpt lat="48.69402" lon="7.16081">
        <ele>365.5</ele>
        <time>2023-09-27T17:02:14Z</time>
      </trkpt>
      <trkpt lat="48.69392" lon="7.16058">
        <ele>365</ele>
        <time>2023-09-27T17:02:19Z</time>
      </trkpt>
      <trkpt lat="48.69378" lon="7.16039">
        <ele>364.6</ele>
        <time>2023-09-27T17:02:24Z</time>
      </trkpt>
      <trkpt lat="48.69365" lon="7.1602">
        <ele>364.2</ele>
        <time>2023-09-27T17:02:29Z</time>
      </trkpt>
      <trkpt lat="48.69354" lon="7.15993">
        <ele>363.7</ele>
        <time>2023-09-27T17:02:34Z</time>
      </trkpt>
      <trkpt lat="48.69341" lon="7.15967">
        <ele>363.4</ele>
        <time>2023-09-27T17:02:39Z</time>
      </trkpt>
      <trkpt lat="48.69331" lon="7.15941">
        <ele>363.2</ele>
        <time>2023-09-27T17:02:44Z</time>
      </trkpt>
      <trkpt lat="48.69319" lon="7.15916">
        <ele>363.1</ele>
        <time>2023-09-27T17:02:49Z</time>
      </trkpt>
      <trkpt lat="48.69309" lon="7.15891">
        <ele>363.1</ele>
        <time>2023-09-27T17:02:54Z</time>
      </trkpt>
      <trkpt lat="48.69301" lon="7.15865">
        <ele>363.1</ele>
        <time>2023-09-27T17:02:59Z</time>
      </trkpt>
      <trkpt lat="48.69293" lon="7.1584">
        <ele>363.3</ele>
        <time>2023-09-27T17:03:04Z</time>
      </trkpt>
      <trkpt lat="48.69285" lon="7.1581">
        <ele>363.8</ele>
        <time>2023-09-27T17:03:10Z</time>
      </trkpt>
      <trkpt lat="48.69278" lon="7.15781">
        <ele>364.4</ele>
        <time>2023-09-27T17:03:16Z</time>
      </trkpt>
      <trkpt lat="48.69269" lon="7.15754">
        <ele>365.2</ele>
        <time>2023-09-27T17:03:22Z</time>
      </trkpt>
      <trkpt lat="48.6927" lon="7.15726">
        <ele>365.8</ele>
        <time>2023-09-27T17:03:27Z</time>
      </trkpt>
      <trkpt lat="48.69273" lon="7.15699">
        <ele>366.4</ele>
        <time>2023-09-27T17:03:32Z</time>
      </trkpt>
      <trkpt lat="48.69281" lon="7.15672">
        <ele>367.1</ele>
        <time>2023-09-27T17:03:38Z</time>
      </trkpt>
      <trkpt lat="48.69294" lon="7.1565">
        <ele>367.9</ele>
        <time>2023-09-27T17:03:43Z</time>
      </trkpt>
      <trkpt lat="48.69308" lon="7.1563">
        <ele>368.5</ele>
        <time>2023-09-27T17:03:49Z</time>
      </trkpt>
      <trkpt lat="48.69324" lon="7.1561">
        <ele>368.5</ele>
        <time>2023-09-27T17:03:55Z</time>
      </trkpt>
      <trkpt lat="48.69339" lon="7.15589">
        <ele>368.5</ele>
        <time>2023-09-27T17:04:01Z</time>
      </trkpt>
      <trkpt lat="48.69351" lon="7.15568">
        <ele>368.4</ele>
        <time>2023-09-27T17:04:07Z</time>
      </trkpt>
      <trkpt lat="48.69366" lon="7.15547">
        <ele>368.1</ele>
        <time>2023-09-27T17:04:13Z</time>
      </trkpt>
      <trkpt lat="48.69382" lon="7.15526">
        <ele>367.6</ele>
        <time>2023-09-27T17:04:19Z</time>
      </trkpt>
      <trkpt lat="48.69396" lon="7.15504">
        <ele>366.9</ele>
        <time>2023-09-27T17:04:25Z</time>
      </trkpt>
      <trkpt lat="48.69409" lon="7.15484">
        <ele>366.4</ele>
        <time>2023-09-27T17:04:30Z</time>
      </trkpt>
      <trkpt lat="48.69423" lon="7.1546">
        <ele>365.9</ele>
        <time>2023-09-27T17:04:36Z</time>
      </trkpt>
      <trkpt lat="48.69439" lon="7.15442">
        <ele>365.2</ele>
        <time>2023-09-27T17:04:41Z</time>
      </trkpt>
      <trkpt lat="48.69456" lon="7.15425">
        <ele>364.5</ele>
        <time>2023-09-27T17:04:46Z</time>
      </trkpt>
      <trkpt lat="48.69471" lon="7.15407">
        <ele>364.3</ele>
        <time>2023-09-27T17:04:51Z</time>
      </trkpt>
      <trkpt lat="48.69487" lon="7.15387">
        <ele>364</ele>
        <time>2023-09-27T17:04:57Z</time>
      </trkpt>
      <trkpt lat="48.69503" lon="7.15369">
        <ele>363.4</ele>
        <time>2023-09-27T17:05:02Z</time>
      </trkpt>
      <trkpt lat="48.69521" lon="7.1535">
        <ele>362.6</ele>
        <time>2023-09-27T17:05:07Z</time>
      </trkpt>
      <trkpt lat="48.69536" lon="7.15332">
        <ele>362.1</ele>
        <time>2023-09-27T17:05:12Z</time>
      </trkpt>
      <trkpt lat="48.69551" lon="7.15313">
        <ele>361.7</ele>
        <time>2023-09-27T17:05:17Z</time>
      </trkpt>
      <trkpt lat="48.69564" lon="7.15295">
        <ele>361.2</ele>
        <time>2023-09-27T17:05:22Z</time>
      </trkpt>
      <trkpt lat="48.69579" lon="7.15272">
        <ele>361</ele>
        <time>2023-09-27T17:05:28Z</time>
      </trkpt>
      <trkpt lat="48.69593" lon="7.15253">
        <ele>361.1</ele>
        <time>2023-09-27T17:05:33Z</time>
      </trkpt>
      <trkpt lat="48.69605" lon="7.15233">
        <ele>361.3</ele>
        <time>2023-09-27T17:05:38Z</time>
      </trkpt>
      <trkpt lat="48.69619" lon="7.15215">
        <ele>361.5</ele>
        <time>2023-09-27T17:05:43Z</time>
      </trkpt>
      <trkpt lat="48.69634" lon="7.15197">
        <ele>361.7</ele>
        <time>2023-09-27T17:05:48Z</time>
      </trkpt>
      <trkpt lat="48.69648" lon="7.15178">
        <ele>361.8</ele>
        <time>2023-09-27T17:05:53Z</time>
      </trkpt>
      <trkpt lat="48.69662" lon="7.15158">
        <ele>361.8</ele>
        <time>2023-09-27T17:05:58Z</time>
      </trkpt>
      <trkpt lat="48.69676" lon="7.15141">
        <ele>361.7</ele>
        <time>2023-09-27T17:06:03Z</time>
      </trkpt>
      <trkpt lat="48.69692" lon="7.15119">
        <ele>361.9</ele>
        <time>2023-09-27T17:06:09Z</time>
      </trkpt>
      <trkpt lat="48.69707" lon="7.15101">
        <ele>362.1</ele>
        <time>2023-09-27T17:06:14Z</time>
      </trkpt>
      <trkpt lat="48.69722" lon="7.15079">
        <ele>362.3</ele>
        <time>2023-09-27T17:06:20Z</time>
      </trkpt>
      <trkpt lat="48.69736" lon="7.1506">
        <ele>362.6</ele>
        <time>2023-09-27T17:06:25Z</time>
      </trkpt>
      <trkpt lat="48.6975" lon="7.15041">
        <ele>362.7</ele>
        <time>2023-09-27T17:06:30Z</time>
      </trkpt>
      <trkpt lat="48.69764" lon="7.15022">
        <ele>362.5</ele>
        <time>2023-09-27T17:06:35Z</time>
      </trkpt>
      <trkpt lat="48.69779" lon="7.15004">
        <ele>362.2</ele>
        <time>2023-09-27T17:06:40Z</time>
      </trkpt>
      <trkpt lat="48.69792" lon="7.14982">
        <ele>362.1</ele>
        <time>2023-09-27T17:06:45Z</time>
      </trkpt>
      <trkpt lat="48.69806" lon="7.14959">
        <ele>361.6</ele>
        <time>2023-09-27T17:06:50Z</time>
      </trkpt>
      <trkpt lat="48.69821" lon="7.14936">
        <ele>360.8</ele>
        <time>2023-09-27T17:06:56Z</time>
      </trkpt>
      <trkpt lat="48.69836" lon="7.14915">
        <ele>360</ele>
        <time>2023-09-27T17:07:02Z</time>
      </trkpt>
      <trkpt lat="48.69849" lon="7.14895">
        <ele>359.3</ele>
        <time>2023-09-27T17:07:08Z</time>
      </trkpt>
      <trkpt lat="48.69864" lon="7.14872">
        <ele>358.2</ele>
        <time>2023-09-27T17:07:14Z</time>
      </trkpt>
      <trkpt lat="48.69877" lon="7.1485">
        <ele>357.1</ele>
        <time>2023-09-27T17:07:19Z</time>
      </trkpt>
      <trkpt lat="48.69892" lon="7.14831">
        <ele>355.7</ele>
        <time>2023-09-27T17:07:24Z</time>
      </trkpt>
      <trkpt lat="48.69909" lon="7.14813">
        <ele>354.5</ele>
        <time>2023-09-27T17:07:29Z</time>
      </trkpt>
      <trkpt lat="48.69928" lon="7.14801">
        <ele>353</ele>
        <time>2023-09-27T17:07:33Z</time>
      </trkpt>
      <trkpt lat="48.69937" lon="7.14802">
        <ele>352.8</ele>
        <time>2023-09-27T17:07:34Z</time>
      </trkpt>
      <trkpt lat="48.69955" lon="7.14817">
        <ele>353</ele>
        <time>2023-09-27T17:07:40Z</time>
      </trkpt>
      <trkpt lat="48.6997" lon="7.14835">
        <ele>353.3</ele>
        <time>2023-09-27T17:07:45Z</time>
      </trkpt>
      <trkpt lat="48.69984" lon="7.14853">
        <ele>353.4</ele>
        <time>2023-09-27T17:07:50Z</time>
      </trkpt>
      <trkpt lat="48.6999" lon="7.14855">
        <ele>353.4</ele>
        <time>2023-09-27T17:07:51Z</time>
      </trkpt>
      <trkpt lat="48.69993" lon="7.14854">
        <ele>353.3</ele>
        <time>2023-09-27T17:07:53Z</time>
      </trkpt>
      <trkpt lat="48.70008" lon="7.14834">
        <ele>352</ele>
        <time>2023-09-27T17:07:58Z</time>
      </trkpt>
      <trkpt lat="48.70022" lon="7.14811">
        <ele>350.6</ele>
        <time>2023-09-27T17:08:03Z</time>
      </trkpt>
      <trkpt lat="48.70036" lon="7.14791">
        <ele>349.3</ele>
        <time>2023-09-27T17:08:08Z</time>
      </trkpt>
      <trkpt lat="48.70042" lon="7.14782">
        <ele>348.9</ele>
        <time>2023-09-27T17:08:10Z</time>
      </trkpt>
      <trkpt lat="48.70051" lon="7.14769">
        <ele>348.3</ele>
        <time>2023-09-27T17:08:13Z</time>
      </trkpt>
      <trkpt lat="48.70054" lon="7.1476">
        <ele>347.9</ele>
        <time>2023-09-27T17:08:15Z</time>
      </trkpt>
      <trkpt lat="48.70058" lon="7.14741">
        <ele>347.1</ele>
        <time>2023-09-27T17:08:19Z</time>
      </trkpt>
      <trkpt lat="48.70046" lon="7.14719">
        <ele>346</ele>
        <time>2023-09-27T17:08:25Z</time>
      </trkpt>
      <trkpt lat="48.70031" lon="7.14699">
        <ele>345.4</ele>
        <time>2023-09-27T17:08:32Z</time>
      </trkpt>
      <trkpt lat="48.70017" lon="7.14679">
        <ele>345.9</ele>
        <time>2023-09-27T17:08:39Z</time>
      </trkpt>
      <trkpt lat="48.70005" lon="7.14656">
        <ele>346.9</ele>
        <time>2023-09-27T17:08:47Z</time>
      </trkpt>
      <trkpt lat="48.70003" lon="7.14628">
        <ele>346.3</ele>
        <time>2023-09-27T17:08:53Z</time>
      </trkpt>
      <trkpt lat="48.70006" lon="7.14599">
        <ele>344.6</ele>
        <time>2023-09-27T17:09:00Z</time>
      </trkpt>
      <trkpt lat="48.70014" lon="7.1457">
        <ele>343.6</ele>
        <time>2023-09-27T17:09:06Z</time>
      </trkpt>
      <trkpt lat="48.70021" lon="7.14542">
        <ele>343.3</ele>
        <time>2023-09-27T17:09:12Z</time>
      </trkpt>
      <trkpt lat="48.70026" lon="7.14514">
        <ele>343.3</ele>
        <time>2023-09-27T17:09:18Z</time>
      </trkpt>
      <trkpt lat="48.7003" lon="7.14484">
        <ele>342.5</ele>
        <time>2023-09-27T17:09:25Z</time>
      </trkpt>
      <trkpt lat="48.70032" lon="7.14454">
        <ele>341.7</ele>
        <time>2023-09-27T17:09:31Z</time>
      </trkpt>
      <trkpt lat="48.7003" lon="7.14423">
        <ele>341.1</ele>
        <time>2023-09-27T17:09:37Z</time>
      </trkpt>
      <trkpt lat="48.70027" lon="7.14392">
        <ele>340.5</ele>
        <time>2023-09-27T17:09:43Z</time>
      </trkpt>
      <trkpt lat="48.70025" lon="7.14362">
        <ele>339.8</ele>
        <time>2023-09-27T17:09:49Z</time>
      </trkpt>
      <trkpt lat="48.70015" lon="7.14335">
        <ele>339.4</ele>
        <time>2023-09-27T17:09:54Z</time>
      </trkpt>
      <trkpt lat="48.70004" lon="7.14309">
        <ele>339.2</ele>
        <time>2023-09-27T17:09:59Z</time>
      </trkpt>
      <trkpt lat="48.69996" lon="7.14281">
        <ele>339.1</ele>
        <time>2023-09-27T17:10:04Z</time>
      </trkpt>
      <trkpt lat="48.69984" lon="7.14255">
        <ele>339.1</ele>
        <time>2023-09-27T17:10:09Z</time>
      </trkpt>
      <trkpt lat="48.69983" lon="7.14244">
        <ele>339</ele>
        <time>2023-09-27T17:10:10Z</time>
      </trkpt>
      <trkpt lat="48.6999" lon="7.14216">
        <ele>338.3</ele>
        <time>2023-09-27T17:10:16Z</time>
      </trkpt>
      <trkpt lat="48.69994" lon="7.14186">
        <ele>337.3</ele>
        <time>2023-09-27T17:10:22Z</time>
      </trkpt>
      <trkpt lat="48.69996" lon="7.14156">
        <ele>336.3</ele>
        <time>2023-09-27T17:10:28Z</time>
      </trkpt>
      <trkpt lat="48.7" lon="7.14128">
        <ele>336</ele>
        <time>2023-09-27T17:10:33Z</time>
      </trkpt>
      <trkpt lat="48.70003" lon="7.141">
        <ele>336</ele>
        <time>2023-09-27T17:10:38Z</time>
      </trkpt>
      <trkpt lat="48.7001" lon="7.14073">
        <ele>335.8</ele>
        <time>2023-09-27T17:10:43Z</time>
      </trkpt>
      <trkpt lat="48.70015" lon="7.14046">
        <ele>334.9</ele>
        <time>2023-09-27T17:10:48Z</time>
      </trkpt>
      <trkpt lat="48.7002" lon="7.1402">
        <ele>334</ele>
        <time>2023-09-27T17:10:53Z</time>
      </trkpt>
      <trkpt lat="48.70013" lon="7.1399">
        <ele>333.7</ele>
        <time>2023-09-27T17:10:59Z</time>
      </trkpt>
      <trkpt lat="48.70009" lon="7.13958">
        <ele>333.1</ele>
        <time>2023-09-27T17:11:05Z</time>
      </trkpt>
      <trkpt lat="48.70005" lon="7.13932">
        <ele>332.4</ele>
        <time>2023-09-27T17:11:10Z</time>
      </trkpt>
      <trkpt lat="48.69999" lon="7.13905">
        <ele>332.3</ele>
        <time>2023-09-27T17:11:15Z</time>
      </trkpt>
      <trkpt lat="48.69991" lon="7.13874">
        <ele>332</ele>
        <time>2023-09-27T17:11:20Z</time>
      </trkpt>
      <trkpt lat="48.69988" lon="7.13842">
        <ele>331.8</ele>
        <time>2023-09-27T17:11:25Z</time>
      </trkpt>
      <trkpt lat="48.69987" lon="7.13812">
        <ele>331.1</ele>
        <time>2023-09-27T17:11:31Z</time>
      </trkpt>
      <trkpt lat="48.69989" lon="7.13809">
        <ele>330.9</ele>
        <time>2023-09-27T17:11:32Z</time>
      </trkpt>
      <trkpt lat="48.70006" lon="7.13791">
        <ele>329.1</ele>
        <time>2023-09-27T17:11:38Z</time>
      </trkpt>
      <trkpt lat="48.70021" lon="7.1377">
        <ele>328</ele>
        <time>2023-09-27T17:11:44Z</time>
      </trkpt>
      <trkpt lat="48.7003" lon="7.13747">
        <ele>327.8</ele>
        <time>2023-09-27T17:11:50Z</time>
      </trkpt>
      <trkpt lat="48.70027" lon="7.13718">
        <ele>328.7</ele>
        <time>2023-09-27T17:11:58Z</time>
      </trkpt>
      <trkpt lat="48.70018" lon="7.13695">
        <ele>329.4</ele>
        <time>2023-09-27T17:12:03Z</time>
      </trkpt>
      <trkpt lat="48.70008" lon="7.13668">
        <ele>330.1</ele>
        <time>2023-09-27T17:12:09Z</time>
      </trkpt>
      <trkpt lat="48.70002" lon="7.13638">
        <ele>330.7</ele>
        <time>2023-09-27T17:12:15Z</time>
      </trkpt>
      <trkpt lat="48.70013" lon="7.13612">
        <ele>330.5</ele>
        <time>2023-09-27T17:12:20Z</time>
      </trkpt>
      <trkpt lat="48.70029" lon="7.13594">
        <ele>329.5</ele>
        <time>2023-09-27T17:12:26Z</time>
      </trkpt>
      <trkpt lat="48.70047" lon="7.13575">
        <ele>328</ele>
        <time>2023-09-27T17:12:32Z</time>
      </trkpt>
      <trkpt lat="48.70062" lon="7.13559">
        <ele>326.5</ele>
        <time>2023-09-27T17:12:37Z</time>
      </trkpt>
      <trkpt lat="48.70076" lon="7.13539">
        <ele>325.5</ele>
        <time>2023-09-27T17:12:42Z</time>
      </trkpt>
      <trkpt lat="48.7009" lon="7.13515">
        <ele>324.4</ele>
        <time>2023-09-27T17:12:47Z</time>
      </trkpt>
      <trkpt lat="48.70104" lon="7.13496">
        <ele>323.2</ele>
        <time>2023-09-27T17:12:51Z</time>
      </trkpt>
      <trkpt lat="48.70118" lon="7.13478">
        <ele>322.5</ele>
        <time>2023-09-27T17:12:55Z</time>
      </trkpt>
      <trkpt lat="48.70131" lon="7.13455">
        <ele>322.3</ele>
        <time>2023-09-27T17:13:00Z</time>
      </trkpt>
      <trkpt lat="48.70143" lon="7.13433">
        <ele>322.4</ele>
        <time>2023-09-27T17:13:05Z</time>
      </trkpt>
      <trkpt lat="48.70155" lon="7.13407">
        <ele>323</ele>
        <time>2023-09-27T17:13:11Z</time>
      </trkpt>
      <trkpt lat="48.70169" lon="7.13386">
        <ele>323.5</ele>
        <time>2023-09-27T17:13:17Z</time>
      </trkpt>
      <trkpt lat="48.70183" lon="7.13363">
        <ele>323.9</ele>
        <time>2023-09-27T17:13:24Z</time>
      </trkpt>
      <trkpt lat="48.70196" lon="7.13342">
        <ele>324.4</ele>
        <time>2023-09-27T17:13:30Z</time>
      </trkpt>
      <trkpt lat="48.70208" lon="7.13319">
        <ele>324.7</ele>
        <time>2023-09-27T17:13:36Z</time>
      </trkpt>
      <trkpt lat="48.70218" lon="7.13292">
        <ele>324.7</ele>
        <time>2023-09-27T17:13:42Z</time>
      </trkpt>
      <trkpt lat="48.70219" lon="7.13262">
        <ele>325.2</ele>
        <time>2023-09-27T17:13:48Z</time>
      </trkpt>
      <trkpt lat="48.70212" lon="7.13233">
        <ele>326.3</ele>
        <time>2023-09-27T17:13:55Z</time>
      </trkpt>
      <trkpt lat="48.70204" lon="7.13205">
        <ele>327.4</ele>
        <time>2023-09-27T17:14:02Z</time>
      </trkpt>
      <trkpt lat="48.702" lon="7.13177">
        <ele>328.5</ele>
        <time>2023-09-27T17:14:08Z</time>
      </trkpt>
      <trkpt lat="48.70197" lon="7.13149">
        <ele>329.4</ele>
        <time>2023-09-27T17:14:14Z</time>
      </trkpt>
      <trkpt lat="48.70194" lon="7.1312">
        <ele>330.2</ele>
        <time>2023-09-27T17:14:20Z</time>
      </trkpt>
      <trkpt lat="48.70189" lon="7.13092">
        <ele>330.3</ele>
        <time>2023-09-27T17:14:26Z</time>
      </trkpt>
      <trkpt lat="48.7018" lon="7.13065">
        <ele>330.2</ele>
        <time>2023-09-27T17:14:32Z</time>
      </trkpt>
      <trkpt lat="48.70173" lon="7.13039">
        <ele>329.7</ele>
        <time>2023-09-27T17:14:38Z</time>
      </trkpt>
      <trkpt lat="48.70161" lon="7.13014">
        <ele>329.1</ele>
        <time>2023-09-27T17:14:45Z</time>
      </trkpt>
      <trkpt lat="48.70149" lon="7.1299">
        <ele>328.6</ele>
        <time>2023-09-27T17:14:51Z</time>
      </trkpt>
      <trkpt lat="48.70141" lon="7.12963">
        <ele>328.2</ele>
        <time>2023-09-27T17:14:57Z</time>
      </trkpt>
      <trkpt lat="48.70144" lon="7.12943">
        <ele>328</ele>
        <time>2023-09-27T17:15:02Z</time>
      </trkpt>
      <trkpt lat="48.70151" lon="7.12931">
        <ele>327.8</ele>
        <time>2023-09-27T17:15:06Z</time>
      </trkpt>
      <trkpt lat="48.70151" lon="7.12902">
        <ele>328</ele>
        <time>2023-09-27T17:15:12Z</time>
      </trkpt>
      <trkpt lat="48.70147" lon="7.12876">
        <ele>328.5</ele>
        <time>2023-09-27T17:15:17Z</time>
      </trkpt>
      <trkpt lat="48.70137" lon="7.12853">
        <ele>328.9</ele>
        <time>2023-09-27T17:15:22Z</time>
      </trkpt>
      <trkpt lat="48.70135" lon="7.12826">
        <ele>329</ele>
        <time>2023-09-27T17:15:28Z</time>
      </trkpt>
      <trkpt lat="48.70135" lon="7.12815">
        <ele>328.7</ele>
        <time>2023-09-27T17:15:31Z</time>
      </trkpt>
      <trkpt lat="48.70126" lon="7.12787">
        <ele>328.3</ele>
        <time>2023-09-27T17:15:38Z</time>
      </trkpt>
      <trkpt lat="48.70111" lon="7.12768">
        <ele>328</ele>
        <time>2023-09-27T17:15:45Z</time>
      </trkpt>
      <trkpt lat="48.70097" lon="7.12747">
        <ele>328.2</ele>
        <time>2023-09-27T17:15:51Z</time>
      </trkpt>
      <trkpt lat="48.70083" lon="7.12726">
        <ele>328.9</ele>
        <time>2023-09-27T17:15:57Z</time>
      </trkpt>
      <trkpt lat="48.70071" lon="7.12698">
        <ele>329.5</ele>
        <time>2023-09-27T17:16:03Z</time>
      </trkpt>
      <trkpt lat="48.70066" lon="7.12671">
        <ele>328.5</ele>
        <time>2023-09-27T17:16:08Z</time>
      </trkpt>
      <trkpt lat="48.70063" lon="7.12643">
        <ele>327.3</ele>
        <time>2023-09-27T17:16:14Z</time>
      </trkpt>
      <trkpt lat="48.70056" lon="7.12616">
        <ele>326.7</ele>
        <time>2023-09-27T17:16:20Z</time>
      </trkpt>
      <trkpt lat="48.70045" lon="7.12588">
        <ele>324.7</ele>
        <time>2023-09-27T17:16:26Z</time>
      </trkpt>
      <trkpt lat="48.70032" lon="7.12564">
        <ele>322.8</ele>
        <time>2023-09-27T17:16:31Z</time>
      </trkpt>
      <trkpt lat="48.7002" lon="7.12539">
        <ele>320.2</ele>
        <time>2023-09-27T17:16:36Z</time>
      </trkpt>
      <trkpt lat="48.7001" lon="7.12516">
        <ele>318.1</ele>
        <time>2023-09-27T17:16:41Z</time>
      </trkpt>
      <trkpt lat="48.7" lon="7.12491">
        <ele>315.2</ele>
        <time>2023-09-27T17:16:46Z</time>
      </trkpt>
      <trkpt lat="48.69997" lon="7.1246">
        <ele>312.1</ele>
        <time>2023-09-27T17:16:51Z</time>
      </trkpt>
      <trkpt lat="48.69994" lon="7.12429">
        <ele>307.5</ele>
        <time>2023-09-27T17:16:56Z</time>
      </trkpt>
      <trkpt lat="48.7" lon="7.12397">
        <ele>303.9</ele>
        <time>2023-09-27T17:17:01Z</time>
      </trkpt>
      <trkpt lat="48.70015" lon="7.12375">
        <ele>303.9</ele>
        <time>2023-09-27T17:17:06Z</time>
      </trkpt>
      <trkpt lat="48.70031" lon="7.12356">
        <ele>303.9</ele>
        <time>2023-09-27T17:17:12Z</time>
      </trkpt>
      <trkpt lat="48.70048" lon="7.12344">
        <ele>303.9</ele>
        <time>2023-09-27T17:17:18Z</time>
      </trkpt>
      <trkpt lat="48.70064" lon="7.12331">
        <ele>303.9</ele>
        <time>2023-09-27T17:17:24Z</time>
      </trkpt>
      <trkpt lat="48.70081" lon="7.12323">
        <ele>303.9</ele>
        <time>2023-09-27T17:17:29Z</time>
      </trkpt>
      <trkpt lat="48.70099" lon="7.1231">
        <ele>303.8</ele>
        <time>2023-09-27T17:17:35Z</time>
      </trkpt>
      <trkpt lat="48.70114" lon="7.1229">
        <ele>303.8</ele>
        <time>2023-09-27T17:17:41Z</time>
      </trkpt>
      <trkpt lat="48.7013" lon="7.12269">
        <ele>303.7</ele>
        <time>2023-09-27T17:17:47Z</time>
      </trkpt>
      <trkpt lat="48.70141" lon="7.12245">
        <ele>303.6</ele>
        <time>2023-09-27T17:17:53Z</time>
      </trkpt>
      <trkpt lat="48.70154" lon="7.1222">
        <ele>303.4</ele>
        <time>2023-09-27T17:17:59Z</time>
      </trkpt>
      <trkpt lat="48.70163" lon="7.12196">
        <ele>303.3</ele>
        <time>2023-09-27T17:18:04Z</time>
      </trkpt>
      <trkpt lat="48.70173" lon="7.12171">
        <ele>303.1</ele>
        <time>2023-09-27T17:18:09Z</time>
      </trkpt>
      <trkpt lat="48.70187" lon="7.1215">
        <ele>303</ele>
        <time>2023-09-27T17:18:15Z</time>
      </trkpt>
      <trkpt lat="48.70202" lon="7.12129">
        <ele>302.1</ele>
        <time>2023-09-27T17:18:21Z</time>
      </trkpt>
      <trkpt lat="48.70218" lon="7.12111">
        <ele>301.5</ele>
        <time>2023-09-27T17:18:27Z</time>
      </trkpt>
      <trkpt lat="48.70235" lon="7.12096">
        <ele>302.1</ele>
        <time>2023-09-27T17:18:34Z</time>
      </trkpt>
      <trkpt lat="48.70252" lon="7.12082">
        <ele>303.9</ele>
        <time>2023-09-27T17:18:40Z</time>
      </trkpt>
      <trkpt lat="48.7027" lon="7.12068">
        <ele>305</ele>
        <time>2023-09-27T17:18:46Z</time>
      </trkpt>
      <trkpt lat="48.70287" lon="7.12056">
        <ele>305.8</ele>
        <time>2023-09-27T17:18:51Z</time>
      </trkpt>
      <trkpt lat="48.70307" lon="7.12049">
        <ele>306.7</ele>
        <time>2023-09-27T17:18:57Z</time>
      </trkpt>
      <trkpt lat="48.70325" lon="7.12042">
        <ele>307.5</ele>
        <time>2023-09-27T17:19:03Z</time>
      </trkpt>
      <trkpt lat="48.70343" lon="7.12036">
        <ele>308.9</ele>
        <time>2023-09-27T17:19:09Z</time>
      </trkpt>
      <trkpt lat="48.70361" lon="7.12029">
        <ele>310.3</ele>
        <time>2023-09-27T17:19:15Z</time>
      </trkpt>
      <trkpt lat="48.70375" lon="7.12009">
        <ele>311.4</ele>
        <time>2023-09-27T17:19:21Z</time>
      </trkpt>
      <trkpt lat="48.70383" lon="7.11983">
        <ele>312.2</ele>
        <time>2023-09-27T17:19:27Z</time>
      </trkpt>
      <trkpt lat="48.70395" lon="7.11961">
        <ele>313.3</ele>
        <time>2023-09-27T17:19:33Z</time>
      </trkpt>
      <trkpt lat="48.70412" lon="7.11942">
        <ele>313.6</ele>
        <time>2023-09-27T17:19:40Z</time>
      </trkpt>
      <trkpt lat="48.70428" lon="7.11928">
        <ele>313.4</ele>
        <time>2023-09-27T17:19:45Z</time>
      </trkpt>
      <trkpt lat="48.70446" lon="7.1191">
        <ele>313.3</ele>
        <time>2023-09-27T17:19:51Z</time>
      </trkpt>
      <trkpt lat="48.70459" lon="7.11888">
        <ele>313.2</ele>
        <time>2023-09-27T17:19:57Z</time>
      </trkpt>
      <trkpt lat="48.70472" lon="7.11869">
        <ele>313.2</ele>
        <time>2023-09-27T17:20:02Z</time>
      </trkpt>
      <trkpt lat="48.70485" lon="7.11844">
        <ele>312.9</ele>
        <time>2023-09-27T17:20:08Z</time>
      </trkpt>
      <trkpt lat="48.70496" lon="7.1182">
        <ele>312.6</ele>
        <time>2023-09-27T17:20:14Z</time>
      </trkpt>
      <trkpt lat="48.70507" lon="7.11793">
        <ele>312</ele>
        <time>2023-09-27T17:20:20Z</time>
      </trkpt>
      <trkpt lat="48.70517" lon="7.11765">
        <ele>311.8</ele>
        <time>2023-09-27T17:20:26Z</time>
      </trkpt>
      <trkpt lat="48.70529" lon="7.1174">
        <ele>312.1</ele>
        <time>2023-09-27T17:20:32Z</time>
      </trkpt>
      <trkpt lat="48.70539" lon="7.11715">
        <ele>312.5</ele>
        <time>2023-09-27T17:20:38Z</time>
      </trkpt>
      <trkpt lat="48.70552" lon="7.11694">
        <ele>313.1</ele>
        <time>2023-09-27T17:20:46Z</time>
      </trkpt>
      <trkpt lat="48.70568" lon="7.11678">
        <ele>313.5</ele>
        <time>2023-09-27T17:20:54Z</time>
      </trkpt>
      <trkpt lat="48.70584" lon="7.11663">
        <ele>314.4</ele>
        <time>2023-09-27T17:20:59Z</time>
      </trkpt>
      <trkpt lat="48.70602" lon="7.11648">
        <ele>315.4</ele>
        <time>2023-09-27T17:21:05Z</time>
      </trkpt>
      <trkpt lat="48.70618" lon="7.11634">
        <ele>316.1</ele>
        <time>2023-09-27T17:21:11Z</time>
      </trkpt>
      <trkpt lat="48.70634" lon="7.11614">
        <ele>316.8</ele>
        <time>2023-09-27T17:21:17Z</time>
      </trkpt>
      <trkpt lat="48.70646" lon="7.11589">
        <ele>316.9</ele>
        <time>2023-09-27T17:21:24Z</time>
      </trkpt>
      <trkpt lat="48.70659" lon="7.11567">
        <ele>317</ele>
        <time>2023-09-27T17:21:31Z</time>
      </trkpt>
      <trkpt lat="48.70676" lon="7.11547">
        <ele>316.8</ele>
        <time>2023-09-27T17:21:37Z</time>
      </trkpt>
      <trkpt lat="48.70689" lon="7.11527">
        <ele>316.5</ele>
        <time>2023-09-27T17:21:42Z</time>
      </trkpt>
      <trkpt lat="48.70704" lon="7.11511">
        <ele>315.9</ele>
        <time>2023-09-27T17:21:47Z</time>
      </trkpt>
      <trkpt lat="48.7072" lon="7.11497">
        <ele>315.3</ele>
        <time>2023-09-27T17:21:52Z</time>
      </trkpt>
      <trkpt lat="48.70736" lon="7.11482">
        <ele>314.5</ele>
        <time>2023-09-27T17:21:57Z</time>
      </trkpt>
      <trkpt lat="48.70752" lon="7.11464">
        <ele>313.3</ele>
        <time>2023-09-27T17:22:02Z</time>
      </trkpt>
      <trkpt lat="48.70764" lon="7.11441">
        <ele>311.9</ele>
        <time>2023-09-27T17:22:07Z</time>
      </trkpt>
      <trkpt lat="48.70777" lon="7.11422">
        <ele>310.4</ele>
        <time>2023-09-27T17:22:12Z</time>
      </trkpt>
      <trkpt lat="48.70788" lon="7.11399">
        <ele>308.8</ele>
        <time>2023-09-27T17:22:17Z</time>
      </trkpt>
      <trkpt lat="48.70799" lon="7.11375">
        <ele>306.9</ele>
        <time>2023-09-27T17:22:22Z</time>
      </trkpt>
      <trkpt lat="48.7081" lon="7.11353">
        <ele>305.1</ele>
        <time>2023-09-27T17:22:27Z</time>
      </trkpt>
      <trkpt lat="48.70824" lon="7.1133">
        <ele>303</ele>
        <time>2023-09-27T17:22:33Z</time>
      </trkpt>
      <trkpt lat="48.7084" lon="7.11308">
        <ele>300.8</ele>
        <time>2023-09-27T17:22:39Z</time>
      </trkpt>
      <trkpt lat="48.70854" lon="7.11283">
        <ele>298.6</ele>
        <time>2023-09-27T17:22:44Z</time>
      </trkpt>
      <trkpt lat="48.70864" lon="7.1126">
        <ele>297</ele>
        <time>2023-09-27T17:22:48Z</time>
      </trkpt>
      <trkpt lat="48.70883" lon="7.11244">
        <ele>295.5</ele>
        <time>2023-09-27T17:22:53Z</time>
      </trkpt>
      <trkpt lat="48.70901" lon="7.11238">
        <ele>294.4</ele>
        <time>2023-09-27T17:22:59Z</time>
      </trkpt>
      <trkpt lat="48.70921" lon="7.11229">
        <ele>292.8</ele>
        <time>2023-09-27T17:23:05Z</time>
      </trkpt>
      <trkpt lat="48.70939" lon="7.11239">
        <ele>292.9</ele>
        <time>2023-09-27T17:23:13Z</time>
      </trkpt>
      <trkpt lat="48.70956" lon="7.11252">
        <ele>292.8</ele>
        <time>2023-09-27T17:23:19Z</time>
      </trkpt>
      <trkpt lat="48.70972" lon="7.11266">
        <ele>293.3</ele>
        <time>2023-09-27T17:23:24Z</time>
      </trkpt>
      <trkpt lat="48.70989" lon="7.11279">
        <ele>293.8</ele>
        <time>2023-09-27T17:23:29Z</time>
      </trkpt>
      <trkpt lat="48.71007" lon="7.11281">
        <ele>292.2</ele>
        <time>2023-09-27T17:23:35Z</time>
      </trkpt>
      <trkpt lat="48.71023" lon="7.11268">
        <ele>289.2</ele>
        <time>2023-09-27T17:23:40Z</time>
      </trkpt>
      <trkpt lat="48.71034" lon="7.11266">
        <ele>287.4</ele>
        <time>2023-09-27T17:23:43Z</time>
      </trkpt>
      <trkpt lat="48.71039" lon="7.11273">
        <ele>288.2</ele>
        <time>2023-09-27T17:23:45Z</time>
      </trkpt>
      <trkpt lat="48.71037" lon="7.11302">
        <ele>292</ele>
        <time>2023-09-27T17:23:51Z</time>
      </trkpt>
      <trkpt lat="48.71043" lon="7.11329">
        <ele>294.4</ele>
        <time>2023-09-27T17:23:58Z</time>
      </trkpt>
      <trkpt lat="48.71045" lon="7.11358">
        <ele>298</ele>
        <time>2023-09-27T17:24:06Z</time>
      </trkpt>
      <trkpt lat="48.7105" lon="7.11385">
        <ele>301.2</ele>
        <time>2023-09-27T17:24:14Z</time>
      </trkpt>
      <trkpt lat="48.71055" lon="7.11414">
        <ele>304</ele>
        <time>2023-09-27T17:24:22Z</time>
      </trkpt>
      <trkpt lat="48.71064" lon="7.11439">
        <ele>304.9</ele>
        <time>2023-09-27T17:24:29Z</time>
      </trkpt>
      <trkpt lat="48.71076" lon="7.11461">
        <ele>304.3</ele>
        <time>2023-09-27T17:24:35Z</time>
      </trkpt>
      <trkpt lat="48.71087" lon="7.11486">
        <ele>303.5</ele>
        <time>2023-09-27T17:24:41Z</time>
      </trkpt>
      <trkpt lat="48.71096" lon="7.11512">
        <ele>303.5</ele>
        <time>2023-09-27T17:24:47Z</time>
      </trkpt>
      <trkpt lat="48.71103" lon="7.11542">
        <ele>304.5</ele>
        <time>2023-09-27T17:24:53Z</time>
      </trkpt>
      <trkpt lat="48.71117" lon="7.11563">
        <ele>302.6</ele>
        <time>2023-09-27T17:24:59Z</time>
      </trkpt>
      <trkpt lat="48.71134" lon="7.11575">
        <ele>299.8</ele>
        <time>2023-09-27T17:25:06Z</time>
      </trkpt>
      <trkpt lat="48.71143" lon="7.11597">
        <ele>299.1</ele>
        <time>2023-09-27T17:25:13Z</time>
      </trkpt>
      <trkpt lat="48.71142" lon="7.11626">
        <ele>299.9</ele>
        <time>2023-09-27T17:25:19Z</time>
      </trkpt>
      <trkpt lat="48.7114" lon="7.11653">
        <ele>301.4</ele>
        <time>2023-09-27T17:25:25Z</time>
      </trkpt>
      <trkpt lat="48.71127" lon="7.11674">
        <ele>303.8</ele>
        <time>2023-09-27T17:25:32Z</time>
      </trkpt>
      <trkpt lat="48.71116" lon="7.11697">
        <ele>305.8</ele>
        <time>2023-09-27T17:25:40Z</time>
      </trkpt>
      <trkpt lat="48.71103" lon="7.11715">
        <ele>309.7</ele>
        <time>2023-09-27T17:25:48Z</time>
      </trkpt>
      <trkpt lat="48.71086" lon="7.11733">
        <ele>313.7</ele>
        <time>2023-09-27T17:25:55Z</time>
      </trkpt>
      <trkpt lat="48.7107" lon="7.11749">
        <ele>316.6</ele>
        <time>2023-09-27T17:26:03Z</time>
      </trkpt>
      <trkpt lat="48.71055" lon="7.11767">
        <ele>317.5</ele>
        <time>2023-09-27T17:26:12Z</time>
      </trkpt>
      <trkpt lat="48.71048" lon="7.11795">
        <ele>317.7</ele>
        <time>2023-09-27T17:26:19Z</time>
      </trkpt>
      <trkpt lat="48.71037" lon="7.11817">
        <ele>318.9</ele>
        <time>2023-09-27T17:26:26Z</time>
      </trkpt>
      <trkpt lat="48.71026" lon="7.1184">
        <ele>320.4</ele>
        <time>2023-09-27T17:26:32Z</time>
      </trkpt>
      <trkpt lat="48.71034" lon="7.11868">
        <ele>319</ele>
        <time>2023-09-27T17:26:39Z</time>
      </trkpt>
      <trkpt lat="48.71043" lon="7.11891">
        <ele>316.6</ele>
        <time>2023-09-27T17:26:45Z</time>
      </trkpt>
      <trkpt lat="48.7105" lon="7.11917">
        <ele>313</ele>
        <time>2023-09-27T17:26:52Z</time>
      </trkpt>
      <trkpt lat="48.71057" lon="7.11945">
        <ele>307.9</ele>
        <time>2023-09-27T17:26:59Z</time>
      </trkpt>
      <trkpt lat="48.71065" lon="7.11969">
        <ele>303.4</ele>
        <time>2023-09-27T17:27:05Z</time>
      </trkpt>
      <trkpt lat="48.71075" lon="7.11995">
        <ele>298.1</ele>
        <time>2023-09-27T17:27:10Z</time>
      </trkpt>
      <trkpt lat="48.7108" lon="7.12007">
        <ele>295</ele>
        <time>2023-09-27T17:27:12Z</time>
      </trkpt>
      <trkpt lat="48.71094" lon="7.12026">
        <ele>290.4</ele>
        <time>2023-09-27T17:27:16Z</time>
      </trkpt>
      <trkpt lat="48.71097" lon="7.12029">
        <ele>290.1</ele>
        <time>2023-09-27T17:27:18Z</time>
      </trkpt>
      <trkpt lat="48.71112" lon="7.12008">
        <ele>289.9</ele>
        <time>2023-09-27T17:27:25Z</time>
      </trkpt>
      <trkpt lat="48.71127" lon="7.11989">
        <ele>289.3</ele>
        <time>2023-09-27T17:27:31Z</time>
      </trkpt>
      <trkpt lat="48.71142" lon="7.11973">
        <ele>288.5</ele>
        <time>2023-09-27T17:27:37Z</time>
      </trkpt>
      <trkpt lat="48.71158" lon="7.11954">
        <ele>288.5</ele>
        <time>2023-09-27T17:27:44Z</time>
      </trkpt>
      <trkpt lat="48.71177" lon="7.11939">
        <ele>287.3</ele>
        <time>2023-09-27T17:27:50Z</time>
      </trkpt>
      <trkpt lat="48.71194" lon="7.11931">
        <ele>285.5</ele>
        <time>2023-09-27T17:27:55Z</time>
      </trkpt>
      <trkpt lat="48.71198" lon="7.11932">
        <ele>285</ele>
        <time>2023-09-27T17:27:56Z</time>
      </trkpt>
      <trkpt lat="48.71214" lon="7.11946">
        <ele>283.6</ele>
        <time>2023-09-27T17:28:01Z</time>
      </trkpt>
      <trkpt lat="48.71234" lon="7.11943">
        <ele>283.4</ele>
        <time>2023-09-27T17:28:07Z</time>
      </trkpt>
      <trkpt lat="48.71254" lon="7.11939">
        <ele>283.1</ele>
        <time>2023-09-27T17:28:13Z</time>
      </trkpt>
      <trkpt lat="48.71275" lon="7.11936">
        <ele>282.7</ele>
        <time>2023-09-27T17:28:19Z</time>
      </trkpt>
      <trkpt lat="48.71296" lon="7.11931">
        <ele>282.3</ele>
        <time>2023-09-27T17:28:25Z</time>
      </trkpt>
      <trkpt lat="48.71317" lon="7.11927">
        <ele>281.8</ele>
        <time>2023-09-27T17:28:31Z</time>
      </trkpt>
      <trkpt lat="48.71338" lon="7.1192">
        <ele>281.5</ele>
        <time>2023-09-27T17:28:37Z</time>
      </trkpt>
      <trkpt lat="48.71358" lon="7.11913">
        <ele>281.2</ele>
        <time>2023-09-27T17:28:43Z</time>
      </trkpt>
      <trkpt lat="48.71378" lon="7.11907">
        <ele>280.8</ele>
        <time>2023-09-27T17:28:48Z</time>
      </trkpt>
      <trkpt lat="48.71399" lon="7.11901">
        <ele>280.4</ele>
        <time>2023-09-27T17:28:52Z</time>
      </trkpt>
      <trkpt lat="48.7142" lon="7.11894">
        <ele>280.1</ele>
        <time>2023-09-27T17:28:57Z</time>
      </trkpt>
      <trkpt lat="48.7144" lon="7.11899">
        <ele>279.7</ele>
        <time>2023-09-27T17:29:03Z</time>
      </trkpt>
      <trkpt lat="48.7145" lon="7.11921">
        <ele>279.4</ele>
        <time>2023-09-27T17:29:08Z</time>
      </trkpt>
      <trkpt lat="48.71454" lon="7.11951">
        <ele>279</ele>
        <time>2023-09-27T17:29:15Z</time>
      </trkpt>
      <trkpt lat="48.71457" lon="7.11978">
        <ele>278.9</ele>
        <time>2023-09-27T17:29:22Z</time>
      </trkpt>
      <trkpt lat="48.71457" lon="7.12007">
        <ele>280.3</ele>
        <time>2023-09-27T17:29:30Z</time>
      </trkpt>
      <trkpt lat="48.71454" lon="7.12037">
        <ele>282.5</ele>
        <time>2023-09-27T17:29:38Z</time>
      </trkpt>
      <trkpt lat="48.71454" lon="7.12067">
        <ele>284.4</ele>
        <time>2023-09-27T17:29:46Z</time>
      </trkpt>
      <trkpt lat="48.71455" lon="7.12096">
        <ele>286.3</ele>
        <time>2023-09-27T17:29:54Z</time>
      </trkpt>
      <trkpt lat="48.71455" lon="7.12124">
        <ele>288.3</ele>
        <time>2023-09-27T17:30:01Z</time>
      </trkpt>
      <trkpt lat="48.71454" lon="7.12151">
        <ele>290.3</ele>
        <time>2023-09-27T17:30:08Z</time>
      </trkpt>
      <trkpt lat="48.71454" lon="7.12179">
        <ele>292.5</ele>
        <time>2023-09-27T17:30:15Z</time>
      </trkpt>
      <trkpt lat="48.71455" lon="7.12209">
        <ele>295.1</ele>
        <time>2023-09-27T17:30:23Z</time>
      </trkpt>
      <trkpt lat="48.71455" lon="7.12238">
        <ele>297.5</ele>
        <time>2023-09-27T17:30:31Z</time>
      </trkpt>
      <trkpt lat="48.71452" lon="7.12265">
        <ele>299.6</ele>
        <time>2023-09-27T17:30:39Z</time>
      </trkpt>
      <trkpt lat="48.71453" lon="7.12294">
        <ele>301.8</ele>
        <time>2023-09-27T17:30:47Z</time>
      </trkpt>
      <trkpt lat="48.71451" lon="7.12324">
        <ele>303.9</ele>
        <time>2023-09-27T17:30:56Z</time>
      </trkpt>
      <trkpt lat="48.71453" lon="7.12351">
        <ele>305.9</ele>
        <time>2023-09-27T17:31:04Z</time>
      </trkpt>
      <trkpt lat="48.71456" lon="7.12382">
        <ele>307.9</ele>
        <time>2023-09-27T17:31:12Z</time>
      </trkpt>
      <trkpt lat="48.71459" lon="7.12411">
        <ele>309.6</ele>
        <time>2023-09-27T17:31:20Z</time>
      </trkpt>
      <trkpt lat="48.71461" lon="7.1244">
        <ele>310.9</ele>
        <time>2023-09-27T17:31:27Z</time>
      </trkpt>
      <trkpt lat="48.71463" lon="7.12468">
        <ele>312.3</ele>
        <time>2023-09-27T17:31:34Z</time>
      </trkpt>
      <trkpt lat="48.71466" lon="7.12496">
        <ele>313.6</ele>
        <time>2023-09-27T17:31:41Z</time>
      </trkpt>
      <trkpt lat="48.7147" lon="7.12525">
        <ele>315</ele>
        <time>2023-09-27T17:31:48Z</time>
      </trkpt>
      <trkpt lat="48.71472" lon="7.12554">
        <ele>316.4</ele>
        <time>2023-09-27T17:31:55Z</time>
      </trkpt>
      <trkpt lat="48.71476" lon="7.12583">
        <ele>317.6</ele>
        <time>2023-09-27T17:32:02Z</time>
      </trkpt>
      <trkpt lat="48.71479" lon="7.12613">
        <ele>318.8</ele>
        <time>2023-09-27T17:32:09Z</time>
      </trkpt>
      <trkpt lat="48.71481" lon="7.1264">
        <ele>319.9</ele>
        <time>2023-09-27T17:32:15Z</time>
      </trkpt>
      <trkpt lat="48.71485" lon="7.1267">
        <ele>321.3</ele>
        <time>2023-09-27T17:32:22Z</time>
      </trkpt>
      <trkpt lat="48.71486" lon="7.12698">
        <ele>322.6</ele>
        <time>2023-09-27T17:32:29Z</time>
      </trkpt>
      <trkpt lat="48.71487" lon="7.12727">
        <ele>324.1</ele>
        <time>2023-09-27T17:32:36Z</time>
      </trkpt>
      <trkpt lat="48.71488" lon="7.12755">
        <ele>325.2</ele>
        <time>2023-09-27T17:32:43Z</time>
      </trkpt>
      <trkpt lat="48.71493" lon="7.12783">
        <ele>325.6</ele>
        <time>2023-09-27T17:32:50Z</time>
      </trkpt>
      <trkpt lat="48.71495" lon="7.1281">
        <ele>326.4</ele>
        <time>2023-09-27T17:32:56Z</time>
      </trkpt>
      <trkpt lat="48.71501" lon="7.12838">
        <ele>327.1</ele>
        <time>2023-09-27T17:33:03Z</time>
      </trkpt>
      <trkpt lat="48.71505" lon="7.12866">
        <ele>328</ele>
        <time>2023-09-27T17:33:11Z</time>
      </trkpt>
      <trkpt lat="48.71508" lon="7.12895">
        <ele>328.9</ele>
        <time>2023-09-27T17:33:18Z</time>
      </trkpt>
      <trkpt lat="48.71509" lon="7.12927">
        <ele>330</ele>
        <time>2023-09-27T17:33:25Z</time>
      </trkpt>
      <trkpt lat="48.71511" lon="7.12958">
        <ele>330.8</ele>
        <time>2023-09-27T17:33:32Z</time>
      </trkpt>
      <trkpt lat="48.71513" lon="7.12987">
        <ele>332</ele>
        <time>2023-09-27T17:33:38Z</time>
      </trkpt>
      <trkpt lat="48.71516" lon="7.13014">
        <ele>332.9</ele>
        <time>2023-09-27T17:33:44Z</time>
      </trkpt>
      <trkpt lat="48.71519" lon="7.13046">
        <ele>333.3</ele>
        <time>2023-09-27T17:33:51Z</time>
      </trkpt>
      <trkpt lat="48.71521" lon="7.13073">
        <ele>333.8</ele>
        <time>2023-09-27T17:33:57Z</time>
      </trkpt>
      <trkpt lat="48.71524" lon="7.13103">
        <ele>334.8</ele>
        <time>2023-09-27T17:34:04Z</time>
      </trkpt>
      <trkpt lat="48.71525" lon="7.13133">
        <ele>335.4</ele>
        <time>2023-09-27T17:34:11Z</time>
      </trkpt>
      <trkpt lat="48.71528" lon="7.13161">
        <ele>335.8</ele>
        <time>2023-09-27T17:34:17Z</time>
      </trkpt>
      <trkpt lat="48.71531" lon="7.13189">
        <ele>336.5</ele>
        <time>2023-09-27T17:34:23Z</time>
      </trkpt>
      <trkpt lat="48.71534" lon="7.13217">
        <ele>337</ele>
        <time>2023-09-27T17:34:29Z</time>
      </trkpt>
      <trkpt lat="48.71537" lon="7.13247">
        <ele>337.4</ele>
        <time>2023-09-27T17:34:36Z</time>
      </trkpt>
      <trkpt lat="48.7154" lon="7.13279">
        <ele>338.3</ele>
        <time>2023-09-27T17:34:43Z</time>
      </trkpt>
      <trkpt lat="48.71542" lon="7.13306">
        <ele>338.8</ele>
        <time>2023-09-27T17:34:49Z</time>
      </trkpt>
      <trkpt lat="48.71545" lon="7.13337">
        <ele>339.1</ele>
        <time>2023-09-27T17:34:56Z</time>
      </trkpt>
      <trkpt lat="48.71548" lon="7.13365">
        <ele>339.8</ele>
        <time>2023-09-27T17:35:02Z</time>
      </trkpt>
      <trkpt lat="48.7155" lon="7.13395">
        <ele>340.2</ele>
        <time>2023-09-27T17:35:08Z</time>
      </trkpt>
      <trkpt lat="48.71554" lon="7.13422">
        <ele>340.4</ele>
        <time>2023-09-27T17:35:14Z</time>
      </trkpt>
      <trkpt lat="48.71559" lon="7.13452">
        <ele>340.9</ele>
        <time>2023-09-27T17:35:21Z</time>
      </trkpt>
      <trkpt lat="48.71562" lon="7.13481">
        <ele>341.3</ele>
        <time>2023-09-27T17:35:28Z</time>
      </trkpt>
      <trkpt lat="48.7156" lon="7.1351">
        <ele>340.9</ele>
        <time>2023-09-27T17:35:35Z</time>
      </trkpt>
      <trkpt lat="48.71543" lon="7.13526">
        <ele>342.9</ele>
        <time>2023-09-27T17:35:43Z</time>
      </trkpt>
      <trkpt lat="48.71527" lon="7.13539">
        <ele>344.8</ele>
        <time>2023-09-27T17:35:50Z</time>
      </trkpt>
      <trkpt lat="48.71509" lon="7.13555">
        <ele>346.6</ele>
        <time>2023-09-27T17:35:57Z</time>
      </trkpt>
      <trkpt lat="48.71494" lon="7.13573">
        <ele>348.4</ele>
        <time>2023-09-27T17:36:03Z</time>
      </trkpt>
      <trkpt lat="48.7148" lon="7.13592">
        <ele>349.7</ele>
        <time>2023-09-27T17:36:09Z</time>
      </trkpt>
      <trkpt lat="48.71464" lon="7.13614">
        <ele>351.4</ele>
        <time>2023-09-27T17:36:15Z</time>
      </trkpt>
      <trkpt lat="48.71453" lon="7.13637">
        <ele>351.9</ele>
        <time>2023-09-27T17:36:20Z</time>
      </trkpt>
      <trkpt lat="48.71439" lon="7.13655">
        <ele>351.9</ele>
        <time>2023-09-27T17:36:27Z</time>
      </trkpt>
      <trkpt lat="48.71426" lon="7.13676">
        <ele>351.1</ele>
        <time>2023-09-27T17:36:34Z</time>
      </trkpt>
      <trkpt lat="48.71411" lon="7.13698">
        <ele>350.7</ele>
        <time>2023-09-27T17:36:41Z</time>
      </trkpt>
      <trkpt lat="48.71396" lon="7.13716">
        <ele>350.3</ele>
        <time>2023-09-27T17:36:48Z</time>
      </trkpt>
      <trkpt lat="48.7138" lon="7.13732">
        <ele>350.3</ele>
        <time>2023-09-27T17:36:54Z</time>
      </trkpt>
      <trkpt lat="48.71364" lon="7.13748">
        <ele>350.4</ele>
        <time>2023-09-27T17:37:00Z</time>
      </trkpt>
      <trkpt lat="48.71349" lon="7.13765">
        <ele>350.5</ele>
        <time>2023-09-27T17:37:06Z</time>
      </trkpt>
      <trkpt lat="48.71337" lon="7.13788">
        <ele>350.5</ele>
        <time>2023-09-27T17:37:12Z</time>
      </trkpt>
      <trkpt lat="48.71323" lon="7.13808">
        <ele>351.1</ele>
        <time>2023-09-27T17:37:18Z</time>
      </trkpt>
      <trkpt lat="48.71308" lon="7.13826">
        <ele>352.1</ele>
        <time>2023-09-27T17:37:24Z</time>
      </trkpt>
      <trkpt lat="48.71294" lon="7.13848">
        <ele>353</ele>
        <time>2023-09-27T17:37:29Z</time>
      </trkpt>
      <trkpt lat="48.7128" lon="7.13874">
        <ele>353.7</ele>
        <time>2023-09-27T17:37:34Z</time>
      </trkpt>
      <trkpt lat="48.71266" lon="7.13895">
        <ele>354.3</ele>
        <time>2023-09-27T17:37:39Z</time>
      </trkpt>
      <trkpt lat="48.71248" lon="7.13914">
        <ele>354.8</ele>
        <time>2023-09-27T17:37:44Z</time>
      </trkpt>
      <trkpt lat="48.71234" lon="7.13937">
        <ele>354.8</ele>
        <time>2023-09-27T17:37:49Z</time>
      </trkpt>
      <trkpt lat="48.71222" lon="7.13958">
        <ele>354.2</ele>
        <time>2023-09-27T17:37:54Z</time>
      </trkpt>
      <trkpt lat="48.71208" lon="7.13978">
        <ele>353.7</ele>
        <time>2023-09-27T17:37:59Z</time>
      </trkpt>
      <trkpt lat="48.71196" lon="7.13998">
        <ele>353.1</ele>
        <time>2023-09-27T17:38:04Z</time>
      </trkpt>
      <trkpt lat="48.71182" lon="7.14021">
        <ele>352.3</ele>
        <time>2023-09-27T17:38:11Z</time>
      </trkpt>
      <trkpt lat="48.71169" lon="7.14041">
        <ele>351.2</ele>
        <time>2023-09-27T17:38:17Z</time>
      </trkpt>
      <trkpt lat="48.71155" lon="7.14065">
        <ele>350.2</ele>
        <time>2023-09-27T17:38:23Z</time>
      </trkpt>
      <trkpt lat="48.71146" lon="7.14089">
        <ele>349.7</ele>
        <time>2023-09-27T17:38:28Z</time>
      </trkpt>
      <trkpt lat="48.71134" lon="7.14112">
        <ele>348.4</ele>
        <time>2023-09-27T17:38:34Z</time>
      </trkpt>
      <trkpt lat="48.71119" lon="7.14133">
        <ele>348.4</ele>
        <time>2023-09-27T17:38:40Z</time>
      </trkpt>
      <trkpt lat="48.71103" lon="7.14152">
        <ele>348.7</ele>
        <time>2023-09-27T17:38:46Z</time>
      </trkpt>
      <trkpt lat="48.71085" lon="7.14164">
        <ele>349.4</ele>
        <time>2023-09-27T17:38:52Z</time>
      </trkpt>
      <trkpt lat="48.7107" lon="7.14177">
        <ele>350.4</ele>
        <time>2023-09-27T17:38:57Z</time>
      </trkpt>
      <trkpt lat="48.71054" lon="7.142">
        <ele>350.2</ele>
        <time>2023-09-27T17:39:03Z</time>
      </trkpt>
      <trkpt lat="48.71041" lon="7.14219">
        <ele>349.5</ele>
        <time>2023-09-27T17:39:08Z</time>
      </trkpt>
      <trkpt lat="48.71029" lon="7.14244">
        <ele>348.7</ele>
        <time>2023-09-27T17:39:13Z</time>
      </trkpt>
      <trkpt lat="48.71018" lon="7.1427">
        <ele>348.4</ele>
        <time>2023-09-27T17:39:18Z</time>
      </trkpt>
      <trkpt lat="48.71005" lon="7.14295">
        <ele>348.5</ele>
        <time>2023-09-27T17:39:23Z</time>
      </trkpt>
      <trkpt lat="48.70992" lon="7.14317">
        <ele>349.3</ele>
        <time>2023-09-27T17:39:29Z</time>
      </trkpt>
      <trkpt lat="48.70977" lon="7.14335">
        <ele>349.7</ele>
        <time>2023-09-27T17:39:35Z</time>
      </trkpt>
      <trkpt lat="48.70962" lon="7.14354">
        <ele>350.2</ele>
        <time>2023-09-27T17:39:41Z</time>
      </trkpt>
      <trkpt lat="48.70946" lon="7.14372">
        <ele>350.3</ele>
        <time>2023-09-27T17:39:47Z</time>
      </trkpt>
      <trkpt lat="48.70931" lon="7.14392">
        <ele>350.9</ele>
        <time>2023-09-27T17:39:53Z</time>
      </trkpt>
      <trkpt lat="48.7092" lon="7.14415">
        <ele>350.8</ele>
        <time>2023-09-27T17:39:58Z</time>
      </trkpt>
      <trkpt lat="48.70905" lon="7.14437">
        <ele>350.8</ele>
        <time>2023-09-27T17:40:04Z</time>
      </trkpt>
      <trkpt lat="48.70889" lon="7.14452">
        <ele>350.9</ele>
        <time>2023-09-27T17:40:10Z</time>
      </trkpt>
      <trkpt lat="48.70872" lon="7.14468">
        <ele>351.4</ele>
        <time>2023-09-27T17:40:16Z</time>
      </trkpt>
      <trkpt lat="48.70859" lon="7.14487">
        <ele>351.7</ele>
        <time>2023-09-27T17:40:22Z</time>
      </trkpt>
      <trkpt lat="48.70844" lon="7.14506">
        <ele>351.5</ele>
        <time>2023-09-27T17:40:28Z</time>
      </trkpt>
      <trkpt lat="48.70828" lon="7.14521">
        <ele>351.9</ele>
        <time>2023-09-27T17:40:34Z</time>
      </trkpt>
      <trkpt lat="48.70814" lon="7.14541">
        <ele>351.8</ele>
        <time>2023-09-27T17:40:40Z</time>
      </trkpt>
      <trkpt lat="48.70801" lon="7.14559">
        <ele>351.9</ele>
        <time>2023-09-27T17:40:46Z</time>
      </trkpt>
      <trkpt lat="48.70783" lon="7.14575">
        <ele>352.5</ele>
        <time>2023-09-27T17:40:52Z</time>
      </trkpt>
      <trkpt lat="48.70768" lon="7.14596">
        <ele>353.1</ele>
        <time>2023-09-27T17:40:58Z</time>
      </trkpt>
      <trkpt lat="48.70756" lon="7.1462">
        <ele>352.4</ele>
        <time>2023-09-27T17:41:04Z</time>
      </trkpt>
      <trkpt lat="48.70746" lon="7.14647">
        <ele>351.2</ele>
        <time>2023-09-27T17:41:10Z</time>
      </trkpt>
      <trkpt lat="48.70732" lon="7.14667">
        <ele>351.6</ele>
        <time>2023-09-27T17:41:16Z</time>
      </trkpt>
      <trkpt lat="48.70716" lon="7.14682">
        <ele>353.1</ele>
        <time>2023-09-27T17:41:24Z</time>
      </trkpt>
      <trkpt lat="48.70701" lon="7.14699">
        <ele>353.9</ele>
        <time>2023-09-27T17:41:31Z</time>
      </trkpt>
      <trkpt lat="48.70686" lon="7.1472">
        <ele>354.5</ele>
        <time>2023-09-27T17:41:38Z</time>
      </trkpt>
      <trkpt lat="48.7067" lon="7.14742">
        <ele>355.2</ele>
        <time>2023-09-27T17:41:45Z</time>
      </trkpt>
      <trkpt lat="48.70658" lon="7.14766">
        <ele>355.9</ele>
        <time>2023-09-27T17:41:50Z</time>
      </trkpt>
      <trkpt lat="48.70647" lon="7.14791">
        <ele>356.2</ele>
        <time>2023-09-27T17:41:56Z</time>
      </trkpt>
      <trkpt lat="48.70634" lon="7.14811">
        <ele>356.5</ele>
        <time>2023-09-27T17:42:02Z</time>
      </trkpt>
      <trkpt lat="48.70617" lon="7.1483">
        <ele>356.9</ele>
        <time>2023-09-27T17:42:08Z</time>
      </trkpt>
      <trkpt lat="48.70603" lon="7.1485">
        <ele>357.2</ele>
        <time>2023-09-27T17:42:14Z</time>
      </trkpt>
      <trkpt lat="48.70591" lon="7.14873">
        <ele>357.6</ele>
        <time>2023-09-27T17:42:20Z</time>
      </trkpt>
      <trkpt lat="48.70578" lon="7.14895">
        <ele>357.9</ele>
        <time>2023-09-27T17:42:26Z</time>
      </trkpt>
      <trkpt lat="48.70561" lon="7.14908">
        <ele>358.2</ele>
        <time>2023-09-27T17:42:32Z</time>
      </trkpt>
      <trkpt lat="48.70544" lon="7.14917">
        <ele>358.6</ele>
        <time>2023-09-27T17:42:38Z</time>
      </trkpt>
      <trkpt lat="48.70528" lon="7.14933">
        <ele>358.9</ele>
        <time>2023-09-27T17:42:44Z</time>
      </trkpt>
      <trkpt lat="48.70516" lon="7.14957">
        <ele>359.2</ele>
        <time>2023-09-27T17:42:50Z</time>
      </trkpt>
      <trkpt lat="48.70505" lon="7.14982">
        <ele>359.6</ele>
        <time>2023-09-27T17:42:57Z</time>
      </trkpt>
      <trkpt lat="48.7049" lon="7.15">
        <ele>359.9</ele>
        <time>2023-09-27T17:43:03Z</time>
      </trkpt>
      <trkpt lat="48.70477" lon="7.15021">
        <ele>360.2</ele>
        <time>2023-09-27T17:43:09Z</time>
      </trkpt>
      <trkpt lat="48.70468" lon="7.15051">
        <ele>360.5</ele>
        <time>2023-09-27T17:43:15Z</time>
      </trkpt>
      <trkpt lat="48.70457" lon="7.15076">
        <ele>360.3</ele>
        <time>2023-09-27T17:43:20Z</time>
      </trkpt>
      <trkpt lat="48.70445" lon="7.15099">
        <ele>360.2</ele>
        <time>2023-09-27T17:43:26Z</time>
      </trkpt>
      <trkpt lat="48.7043" lon="7.15122">
        <ele>360.2</ele>
        <time>2023-09-27T17:43:32Z</time>
      </trkpt>
      <trkpt lat="48.70414" lon="7.15143">
        <ele>360.2</ele>
        <time>2023-09-27T17:43:38Z</time>
      </trkpt>
      <trkpt lat="48.70399" lon="7.15164">
        <ele>360</ele>
        <time>2023-09-27T17:43:44Z</time>
      </trkpt>
      <trkpt lat="48.70386" lon="7.15184">
        <ele>359.7</ele>
        <time>2023-09-27T17:43:50Z</time>
      </trkpt>
      <trkpt lat="48.7037" lon="7.15204">
        <ele>359.8</ele>
        <time>2023-09-27T17:43:57Z</time>
      </trkpt>
      <trkpt lat="48.70362" lon="7.15213">
        <ele>359.9</ele>
        <time>2023-09-27T17:44:02Z</time>
      </trkpt>
      <trkpt lat="48.70348" lon="7.15236">
        <ele>359.7</ele>
        <time>2023-09-27T17:44:10Z</time>
      </trkpt>
      <trkpt lat="48.70345" lon="7.15246">
        <ele>359.6</ele>
        <time>2023-09-27T17:44:13Z</time>
      </trkpt>
      <trkpt lat="48.70359" lon="7.15265">
        <ele>359.4</ele>
        <time>2023-09-27T17:44:20Z</time>
      </trkpt>
      <trkpt lat="48.70379" lon="7.15275">
        <ele>359.2</ele>
        <time>2023-09-27T17:44:27Z</time>
      </trkpt>
      <trkpt lat="48.70399" lon="7.15283">
        <ele>359.2</ele>
        <time>2023-09-27T17:44:34Z</time>
      </trkpt>
      <trkpt lat="48.70416" lon="7.1529">
        <ele>359.3</ele>
        <time>2023-09-27T17:44:40Z</time>
      </trkpt>
      <trkpt lat="48.70434" lon="7.15298">
        <ele>359.3</ele>
        <time>2023-09-27T17:44:46Z</time>
      </trkpt>
      <trkpt lat="48.70453" lon="7.15309">
        <ele>359.2</ele>
        <time>2023-09-27T17:44:53Z</time>
      </trkpt>
      <trkpt lat="48.70471" lon="7.1532">
        <ele>359</ele>
        <time>2023-09-27T17:44:59Z</time>
      </trkpt>
      <trkpt lat="48.70489" lon="7.15333">
        <ele>358.8</ele>
        <time>2023-09-27T17:45:05Z</time>
      </trkpt>
      <trkpt lat="48.70507" lon="7.15348">
        <ele>358.4</ele>
        <time>2023-09-27T17:45:11Z</time>
      </trkpt>
      <trkpt lat="48.70523" lon="7.15364">
        <ele>358.1</ele>
        <time>2023-09-27T17:45:17Z</time>
      </trkpt>
      <trkpt lat="48.70539" lon="7.15377">
        <ele>357.8</ele>
        <time>2023-09-27T17:45:23Z</time>
      </trkpt>
      <trkpt lat="48.70559" lon="7.15389">
        <ele>357.5</ele>
        <time>2023-09-27T17:45:29Z</time>
      </trkpt>
      <trkpt lat="48.70576" lon="7.15398">
        <ele>357.4</ele>
        <time>2023-09-27T17:45:34Z</time>
      </trkpt>
      <trkpt lat="48.70596" lon="7.15407">
        <ele>357.2</ele>
        <time>2023-09-27T17:45:40Z</time>
      </trkpt>
      <trkpt lat="48.70615" lon="7.15417">
        <ele>356.9</ele>
        <time>2023-09-27T17:45:46Z</time>
      </trkpt>
      <trkpt lat="48.70633" lon="7.15426">
        <ele>356.6</ele>
        <time>2023-09-27T17:45:52Z</time>
      </trkpt>
      <trkpt lat="48.70652" lon="7.15434">
        <ele>356.5</ele>
        <time>2023-09-27T17:45:58Z</time>
      </trkpt>
      <trkpt lat="48.70672" lon="7.15443">
        <ele>356</ele>
        <time>2023-09-27T17:46:04Z</time>
      </trkpt>
      <trkpt lat="48.70691" lon="7.15455">
        <ele>355.3</ele>
        <time>2023-09-27T17:46:10Z</time>
      </trkpt>
      <trkpt lat="48.7071" lon="7.15469">
        <ele>354.3</ele>
        <time>2023-09-27T17:46:16Z</time>
      </trkpt>
      <trkpt lat="48.70726" lon="7.15483">
        <ele>353.3</ele>
        <time>2023-09-27T17:46:21Z</time>
      </trkpt>
      <trkpt lat="48.70742" lon="7.15498">
        <ele>352.6</ele>
        <time>2023-09-27T17:46:26Z</time>
      </trkpt>
      <trkpt lat="48.70759" lon="7.15514">
        <ele>351.9</ele>
        <time>2023-09-27T17:46:31Z</time>
      </trkpt>
      <trkpt lat="48.70775" lon="7.15529">
        <ele>351.2</ele>
        <time>2023-09-27T17:46:36Z</time>
      </trkpt>
      <trkpt lat="48.70792" lon="7.15546">
        <ele>350.5</ele>
        <time>2023-09-27T17:46:42Z</time>
      </trkpt>
      <trkpt lat="48.70808" lon="7.15563">
        <ele>349.9</ele>
        <time>2023-09-27T17:46:47Z</time>
      </trkpt>
      <trkpt lat="48.70825" lon="7.15579">
        <ele>349.2</ele>
        <time>2023-09-27T17:46:52Z</time>
      </trkpt>
      <trkpt lat="48.70842" lon="7.15597">
        <ele>348.5</ele>
        <time>2023-09-27T17:46:58Z</time>
      </trkpt>
      <trkpt lat="48.70859" lon="7.15611">
        <ele>347.8</ele>
        <time>2023-09-27T17:47:04Z</time>
      </trkpt>
      <trkpt lat="48.70876" lon="7.15626">
        <ele>347.1</ele>
        <time>2023-09-27T17:47:10Z</time>
      </trkpt>
      <trkpt lat="48.70892" lon="7.15638">
        <ele>346.4</ele>
        <time>2023-09-27T17:47:16Z</time>
      </trkpt>
      <trkpt lat="48.70908" lon="7.15653">
        <ele>345.5</ele>
        <time>2023-09-27T17:47:21Z</time>
      </trkpt>
      <trkpt lat="48.70924" lon="7.15665">
        <ele>344.3</ele>
        <time>2023-09-27T17:47:26Z</time>
      </trkpt>
      <trkpt lat="48.70942" lon="7.1568">
        <ele>343</ele>
        <time>2023-09-27T17:47:32Z</time>
      </trkpt>
      <trkpt lat="48.7096" lon="7.15681">
        <ele>342.1</ele>
        <time>2023-09-27T17:47:38Z</time>
      </trkpt>
      <trkpt lat="48.70978" lon="7.15684">
        <ele>341.4</ele>
        <time>2023-09-27T17:47:44Z</time>
      </trkpt>
      <trkpt lat="48.70996" lon="7.15692">
        <ele>340.4</ele>
        <time>2023-09-27T17:47:50Z</time>
      </trkpt>
      <trkpt lat="48.71016" lon="7.15698">
        <ele>339.1</ele>
        <time>2023-09-27T17:47:57Z</time>
      </trkpt>
      <trkpt lat="48.71037" lon="7.15703">
        <ele>337.6</ele>
        <time>2023-09-27T17:48:04Z</time>
      </trkpt>
      <trkpt lat="48.71056" lon="7.15715">
        <ele>336.3</ele>
        <time>2023-09-27T17:48:10Z</time>
      </trkpt>
      <trkpt lat="48.71075" lon="7.15729">
        <ele>335.4</ele>
        <time>2023-09-27T17:48:16Z</time>
      </trkpt>
      <trkpt lat="48.71093" lon="7.1574">
        <ele>334.9</ele>
        <time>2023-09-27T17:48:22Z</time>
      </trkpt>
      <trkpt lat="48.71112" lon="7.15753">
        <ele>334.7</ele>
        <time>2023-09-27T17:48:28Z</time>
      </trkpt>
      <trkpt lat="48.71129" lon="7.15763">
        <ele>334.8</ele>
        <time>2023-09-27T17:48:33Z</time>
      </trkpt>
      <trkpt lat="48.7115" lon="7.15772">
        <ele>335.1</ele>
        <time>2023-09-27T17:48:39Z</time>
      </trkpt>
      <trkpt lat="48.71168" lon="7.15783">
        <ele>335.3</ele>
        <time>2023-09-27T17:48:45Z</time>
      </trkpt>
      <trkpt lat="48.71186" lon="7.15787">
        <ele>335.5</ele>
        <time>2023-09-27T17:48:51Z</time>
      </trkpt>
      <trkpt lat="48.71204" lon="7.15796">
        <ele>335.8</ele>
        <time>2023-09-27T17:48:57Z</time>
      </trkpt>
      <trkpt lat="48.71221" lon="7.15813">
        <ele>336.2</ele>
        <time>2023-09-27T17:49:03Z</time>
      </trkpt>
      <trkpt lat="48.71235" lon="7.15833">
        <ele>336.1</ele>
        <time>2023-09-27T17:49:09Z</time>
      </trkpt>
      <trkpt lat="48.7125" lon="7.15852">
        <ele>335.8</ele>
        <time>2023-09-27T17:49:15Z</time>
      </trkpt>
      <trkpt lat="48.71263" lon="7.15873">
        <ele>335.2</ele>
        <time>2023-09-27T17:49:21Z</time>
      </trkpt>
      <trkpt lat="48.71276" lon="7.15896">
        <ele>334.8</ele>
        <time>2023-09-27T17:49:27Z</time>
      </trkpt>
      <trkpt lat="48.71288" lon="7.15921">
        <ele>334.2</ele>
        <time>2023-09-27T17:49:33Z</time>
      </trkpt>
      <trkpt lat="48.71299" lon="7.15943">
        <ele>333.5</ele>
        <time>2023-09-27T17:49:38Z</time>
      </trkpt>
      <trkpt lat="48.71306" lon="7.15972">
        <ele>332</ele>
        <time>2023-09-27T17:49:44Z</time>
      </trkpt>
      <trkpt lat="48.7131" lon="7.16">
        <ele>330.3</ele>
        <time>2023-09-27T17:49:49Z</time>
      </trkpt>
      <trkpt lat="48.71317" lon="7.16028">
        <ele>328.5</ele>
        <time>2023-09-27T17:49:54Z</time>
      </trkpt>
      <trkpt lat="48.71325" lon="7.16053">
        <ele>327</ele>
        <time>2023-09-27T17:49:59Z</time>
      </trkpt>
      <trkpt lat="48.71333" lon="7.16082">
        <ele>325.6</ele>
        <time>2023-09-27T17:50:05Z</time>
      </trkpt>
      <trkpt lat="48.7132" lon="7.16105">
        <ele>324.7</ele>
        <time>2023-09-27T17:50:11Z</time>
      </trkpt>
      <trkpt lat="48.71307" lon="7.16124">
        <ele>324</ele>
        <time>2023-09-27T17:50:17Z</time>
      </trkpt>
      <trkpt lat="48.71296" lon="7.1615">
        <ele>323.1</ele>
        <time>2023-09-27T17:50:24Z</time>
      </trkpt>
      <trkpt lat="48.71305" lon="7.16175">
        <ele>322.3</ele>
        <time>2023-09-27T17:50:31Z</time>
      </trkpt>
      <trkpt lat="48.71313" lon="7.16191">
        <ele>321.8</ele>
        <time>2023-09-27T17:50:36Z</time>
      </trkpt>
      <trkpt lat="48.71309" lon="7.16196">
        <ele>321.8</ele>
        <time>2023-09-27T17:50:38Z</time>
      </trkpt>
      <trkpt lat="48.71291" lon="7.162">
        <ele>321.6</ele>
        <time>2023-09-27T17:50:43Z</time>
      </trkpt>
      <trkpt lat="48.71272" lon="7.16191">
        <ele>321.1</ele>
        <time>2023-09-27T17:50:49Z</time>
      </trkpt>
      <trkpt lat="48.71255" lon="7.16178">
        <ele>320.4</ele>
        <time>2023-09-27T17:50:55Z</time>
      </trkpt>
      <trkpt lat="48.71239" lon="7.16164">
        <ele>320.2</ele>
        <time>2023-09-27T17:51:01Z</time>
      </trkpt>
      <trkpt lat="48.71222" lon="7.16153">
        <ele>320.1</ele>
        <time>2023-09-27T17:51:07Z</time>
      </trkpt>
      <trkpt lat="48.71206" lon="7.16139">
        <ele>319.8</ele>
        <time>2023-09-27T17:51:13Z</time>
      </trkpt>
      <trkpt lat="48.7119" lon="7.16126">
        <ele>319.2</ele>
        <time>2023-09-27T17:51:19Z</time>
      </trkpt>
      <trkpt lat="48.71173" lon="7.16116">
        <ele>317.9</ele>
        <time>2023-09-27T17:51:25Z</time>
      </trkpt>
      <trkpt lat="48.71155" lon="7.16123">
        <ele>316.7</ele>
        <time>2023-09-27T17:51:31Z</time>
      </trkpt>
      <trkpt lat="48.71133" lon="7.16126">
        <ele>315.8</ele>
        <time>2023-09-27T17:51:37Z</time>
      </trkpt>
      <trkpt lat="48.71116" lon="7.16115">
        <ele>315.8</ele>
        <time>2023-09-27T17:51:43Z</time>
      </trkpt>
      <trkpt lat="48.71102" lon="7.16094">
        <ele>315.9</ele>
        <time>2023-09-27T17:51:50Z</time>
      </trkpt>
      <trkpt lat="48.71088" lon="7.16072">
        <ele>316.1</ele>
        <time>2023-09-27T17:51:57Z</time>
      </trkpt>
      <trkpt lat="48.7107" lon="7.16066">
        <ele>316.1</ele>
        <time>2023-09-27T17:52:04Z</time>
      </trkpt>
      <trkpt lat="48.71051" lon="7.16063">
        <ele>316.2</ele>
        <time>2023-09-27T17:52:11Z</time>
      </trkpt>
      <trkpt lat="48.71032" lon="7.16066">
        <ele>316.4</ele>
        <time>2023-09-27T17:52:18Z</time>
      </trkpt>
      <trkpt lat="48.71015" lon="7.16073">
        <ele>316.7</ele>
        <time>2023-09-27T17:52:25Z</time>
      </trkpt>
      <trkpt lat="48.71012" lon="7.16078">
        <ele>316.7</ele>
        <time>2023-09-27T17:52:27Z</time>
      </trkpt>
      <trkpt lat="48.71015" lon="7.16104">
        <ele>316.8</ele>
        <time>2023-09-27T17:52:34Z</time>
      </trkpt>
      <trkpt lat="48.71027" lon="7.16126">
        <ele>317</ele>
        <time>2023-09-27T17:52:40Z</time>
      </trkpt>
      <trkpt lat="48.7104" lon="7.16147">
        <ele>317.4</ele>
        <time>2023-09-27T17:52:46Z</time>
      </trkpt>
      <trkpt lat="48.71055" lon="7.1617">
        <ele>318</ele>
        <time>2023-09-27T17:52:52Z</time>
      </trkpt>
      <trkpt lat="48.71068" lon="7.16189">
        <ele>317.9</ele>
        <time>2023-09-27T17:52:58Z</time>
      </trkpt>
      <trkpt lat="48.71084" lon="7.16202">
        <ele>317.7</ele>
        <time>2023-09-27T17:53:04Z</time>
      </trkpt>
      <trkpt lat="48.711" lon="7.16221">
        <ele>317.5</ele>
        <time>2023-09-27T17:53:11Z</time>
      </trkpt>
      <trkpt lat="48.71114" lon="7.16239">
        <ele>317.3</ele>
        <time>2023-09-27T17:53:17Z</time>
      </trkpt>
      <trkpt lat="48.71128" lon="7.16259">
        <ele>317</ele>
        <time>2023-09-27T17:53:23Z</time>
      </trkpt>
      <trkpt lat="48.71142" lon="7.16271">
        <ele>316.5</ele>
        <time>2023-09-27T17:53:29Z</time>
      </trkpt>
    </trkseg>
  </trk>
</gpx>